﻿<?xml version="1.0" encoding="UTF-8" standalone="no" ?>
<gpx xmlns="http://www.topografix.com/GPX/1/1" creator="CompeGPS" version="1.1" xmlns:xsi="http://www.w3.org/2001/XMLSchema-instance" xsi:schemaLocation="http://www.topografix.com/GPX/1/1 http://www.topografix.com/GPX/1/1/gpx.xsd http://www.garmin.com/xmlschemas/GpxExtensions/v3 http://www.garmin.com/xmlschemas/GpxExtensionsv3.xsd http://www.garmin.com/xmlschemas/TrackPointExtension/v1 http://www.garmin.com/xmlschemas/TrackPointExtensionv1.xsd" xmlns:gpxtpx="http://www.garmin.com/xmlschemas/TrackPointExtension/v1">
  <metadata>
    <link href="http://www.compegps.com">
      <text>CompeGPS TEAM, SL</text>
    </link>
    <time>2014-12-29T22:28:08Z</time>
    <bounds maxlat="42.937450" maxlon="0.320287" minlat="42.895610" minlon="0.294282"/>
  </metadata>
  <trk>
    <name>Tracé_2014-12-29 165126</name>
    <trkseg>
      <trkpt lat="42.937413" lon="0.303129">
        <ele>1142.1</ele>
        <time>2014-12-29T09:20:52Z</time>
      </trkpt>
      <trkpt lat="42.937374" lon="0.303037">
        <ele>1142.1</ele>
        <time>2014-12-29T09:21:07Z</time>
      </trkpt>
      <trkpt lat="42.937300" lon="0.302906">
        <ele>1141.4</ele>
        <time>2014-12-29T09:21:19Z</time>
      </trkpt>
      <trkpt lat="42.937186" lon="0.302822">
        <ele>1140.9</ele>
        <time>2014-12-29T09:21:34Z</time>
      </trkpt>
      <trkpt lat="42.937079" lon="0.302804">
        <ele>1140.1</ele>
        <time>2014-12-29T09:21:46Z</time>
      </trkpt>
      <trkpt lat="42.936983" lon="0.302800">
        <ele>1139.4</ele>
        <time>2014-12-29T09:21:58Z</time>
      </trkpt>
      <trkpt lat="42.936897" lon="0.302858">
        <ele>1138.7</ele>
        <time>2014-12-29T09:22:10Z</time>
      </trkpt>
      <trkpt lat="42.936796" lon="0.302881">
        <ele>1138.1</ele>
        <time>2014-12-29T09:22:19Z</time>
      </trkpt>
      <trkpt lat="42.936671" lon="0.302854">
        <ele>1137.3</ele>
        <time>2014-12-29T09:22:29Z</time>
      </trkpt>
      <trkpt lat="42.936573" lon="0.302799">
        <ele>1136.4</ele>
        <time>2014-12-29T09:22:41Z</time>
      </trkpt>
      <trkpt lat="42.936487" lon="0.302694">
        <ele>1136.2</ele>
        <time>2014-12-29T09:22:51Z</time>
      </trkpt>
      <trkpt lat="42.936400" lon="0.302596">
        <ele>1136.1</ele>
        <time>2014-12-29T09:22:59Z</time>
      </trkpt>
      <trkpt lat="42.936325" lon="0.302503">
        <ele>1135.6</ele>
        <time>2014-12-29T09:23:08Z</time>
      </trkpt>
      <trkpt lat="42.936247" lon="0.302391">
        <ele>1135.2</ele>
        <time>2014-12-29T09:23:16Z</time>
      </trkpt>
      <trkpt lat="42.936198" lon="0.302275">
        <ele>1134.9</ele>
        <time>2014-12-29T09:23:25Z</time>
      </trkpt>
      <trkpt lat="42.936184" lon="0.302182">
        <ele>1134.2</ele>
        <time>2014-12-29T09:23:43Z</time>
      </trkpt>
      <trkpt lat="42.936114" lon="0.302066">
        <ele>1134.0</ele>
        <time>2014-12-29T09:23:54Z</time>
      </trkpt>
      <trkpt lat="42.936035" lon="0.301946">
        <ele>1134.1</ele>
        <time>2014-12-29T09:24:05Z</time>
      </trkpt>
      <trkpt lat="42.935978" lon="0.301792">
        <ele>1133.6</ele>
        <time>2014-12-29T09:24:15Z</time>
      </trkpt>
      <trkpt lat="42.935897" lon="0.301670">
        <ele>1133.0</ele>
        <time>2014-12-29T09:24:31Z</time>
      </trkpt>
      <trkpt lat="42.935848" lon="0.301526">
        <ele>1132.9</ele>
        <time>2014-12-29T09:24:42Z</time>
      </trkpt>
      <trkpt lat="42.935769" lon="0.301389">
        <ele>1132.3</ele>
        <time>2014-12-29T09:24:53Z</time>
      </trkpt>
      <trkpt lat="42.935712" lon="0.301261">
        <ele>1132.1</ele>
        <time>2014-12-29T09:25:01Z</time>
      </trkpt>
      <trkpt lat="42.935662" lon="0.301140">
        <ele>1131.8</ele>
        <time>2014-12-29T09:25:10Z</time>
      </trkpt>
      <trkpt lat="42.935637" lon="0.300993">
        <ele>1131.4</ele>
        <time>2014-12-29T09:25:19Z</time>
      </trkpt>
      <trkpt lat="42.935551" lon="0.300859">
        <ele>1130.9</ele>
        <time>2014-12-29T09:25:28Z</time>
      </trkpt>
      <trkpt lat="42.935459" lon="0.300770">
        <ele>1130.7</ele>
        <time>2014-12-29T09:25:36Z</time>
      </trkpt>
      <trkpt lat="42.935360" lon="0.300712">
        <ele>1129.7</ele>
        <time>2014-12-29T09:25:44Z</time>
      </trkpt>
      <trkpt lat="42.935270" lon="0.300649">
        <ele>1128.6</ele>
        <time>2014-12-29T09:25:52Z</time>
      </trkpt>
      <trkpt lat="42.935175" lon="0.300607">
        <ele>1128.2</ele>
        <time>2014-12-29T09:26:02Z</time>
      </trkpt>
      <trkpt lat="42.935138" lon="0.300485">
        <ele>1127.8</ele>
        <time>2014-12-29T09:26:10Z</time>
      </trkpt>
      <trkpt lat="42.935133" lon="0.300333">
        <ele>1127.4</ele>
        <time>2014-12-29T09:26:19Z</time>
      </trkpt>
      <trkpt lat="42.935128" lon="0.300199">
        <ele>1127.2</ele>
        <time>2014-12-29T09:26:29Z</time>
      </trkpt>
      <trkpt lat="42.935089" lon="0.300069">
        <ele>1127.1</ele>
        <time>2014-12-29T09:26:38Z</time>
      </trkpt>
      <trkpt lat="42.935007" lon="0.299948">
        <ele>1126.9</ele>
        <time>2014-12-29T09:26:48Z</time>
      </trkpt>
      <trkpt lat="42.934911" lon="0.299867">
        <ele>1126.8</ele>
        <time>2014-12-29T09:26:57Z</time>
      </trkpt>
      <trkpt lat="42.934815" lon="0.299800">
        <ele>1126.8</ele>
        <time>2014-12-29T09:27:09Z</time>
      </trkpt>
      <trkpt lat="42.934743" lon="0.299673">
        <ele>1126.8</ele>
        <time>2014-12-29T09:27:18Z</time>
      </trkpt>
      <trkpt lat="42.934707" lon="0.299539">
        <ele>1126.9</ele>
        <time>2014-12-29T09:27:26Z</time>
      </trkpt>
      <trkpt lat="42.934690" lon="0.299414">
        <ele>1127.1</ele>
        <time>2014-12-29T09:27:36Z</time>
      </trkpt>
      <trkpt lat="42.934687" lon="0.299288">
        <ele>1127.7</ele>
        <time>2014-12-29T09:27:47Z</time>
      </trkpt>
      <trkpt lat="42.934636" lon="0.299206">
        <ele>1127.1</ele>
        <time>2014-12-29T09:27:59Z</time>
      </trkpt>
      <trkpt lat="42.934578" lon="0.299078">
        <ele>1127.0</ele>
        <time>2014-12-29T09:28:12Z</time>
      </trkpt>
      <trkpt lat="42.934487" lon="0.298957">
        <ele>1127.0</ele>
        <time>2014-12-29T09:28:23Z</time>
      </trkpt>
      <trkpt lat="42.934374" lon="0.298804">
        <ele>1127.0</ele>
        <time>2014-12-29T09:28:32Z</time>
      </trkpt>
      <trkpt lat="42.934290" lon="0.298724">
        <ele>1127.2</ele>
        <time>2014-12-29T09:28:40Z</time>
      </trkpt>
      <trkpt lat="42.934192" lon="0.298634">
        <ele>1127.7</ele>
        <time>2014-12-29T09:28:49Z</time>
      </trkpt>
      <trkpt lat="42.934111" lon="0.298527">
        <ele>1127.8</ele>
        <time>2014-12-29T09:28:58Z</time>
      </trkpt>
      <trkpt lat="42.934028" lon="0.298394">
        <ele>1127.8</ele>
        <time>2014-12-29T09:29:07Z</time>
      </trkpt>
      <trkpt lat="42.933968" lon="0.298266">
        <ele>1127.9</ele>
        <time>2014-12-29T09:29:14Z</time>
      </trkpt>
      <trkpt lat="42.933915" lon="0.298154">
        <ele>1127.9</ele>
        <time>2014-12-29T09:29:21Z</time>
      </trkpt>
      <trkpt lat="42.933874" lon="0.298051">
        <ele>1127.7</ele>
        <time>2014-12-29T09:29:28Z</time>
      </trkpt>
      <trkpt lat="42.933796" lon="0.297961">
        <ele>1127.7</ele>
        <time>2014-12-29T09:29:36Z</time>
      </trkpt>
      <trkpt lat="42.933719" lon="0.297877">
        <ele>1127.7</ele>
        <time>2014-12-29T09:29:44Z</time>
      </trkpt>
      <trkpt lat="42.933648" lon="0.297793">
        <ele>1127.3</ele>
        <time>2014-12-29T09:29:52Z</time>
      </trkpt>
      <trkpt lat="42.933561" lon="0.297756">
        <ele>1127.2</ele>
        <time>2014-12-29T09:29:59Z</time>
      </trkpt>
      <trkpt lat="42.933472" lon="0.297735">
        <ele>1127.3</ele>
        <time>2014-12-29T09:30:06Z</time>
      </trkpt>
      <trkpt lat="42.933390" lon="0.297725">
        <ele>1127.2</ele>
        <time>2014-12-29T09:30:13Z</time>
      </trkpt>
      <trkpt lat="42.933303" lon="0.297743">
        <ele>1127.4</ele>
        <time>2014-12-29T09:30:20Z</time>
      </trkpt>
      <trkpt lat="42.933215" lon="0.297760">
        <ele>1127.4</ele>
        <time>2014-12-29T09:30:27Z</time>
      </trkpt>
      <trkpt lat="42.933124" lon="0.297744">
        <ele>1127.5</ele>
        <time>2014-12-29T09:30:35Z</time>
      </trkpt>
      <trkpt lat="42.933033" lon="0.297721">
        <ele>1127.2</ele>
        <time>2014-12-29T09:30:44Z</time>
      </trkpt>
      <trkpt lat="42.932925" lon="0.297683">
        <ele>1127.4</ele>
        <time>2014-12-29T09:30:56Z</time>
      </trkpt>
      <trkpt lat="42.932866" lon="0.297649">
        <ele>1126.1</ele>
        <time>2014-12-29T09:36:05Z</time>
      </trkpt>
      <trkpt lat="42.932758" lon="0.297680">
        <ele>1126.1</ele>
        <time>2014-12-29T09:37:57Z</time>
      </trkpt>
      <trkpt lat="42.932668" lon="0.297760">
        <ele>1126.0</ele>
        <time>2014-12-29T09:38:08Z</time>
      </trkpt>
      <trkpt lat="42.932583" lon="0.297807">
        <ele>1126.1</ele>
        <time>2014-12-29T09:38:20Z</time>
      </trkpt>
      <trkpt lat="42.932481" lon="0.297820">
        <ele>1126.4</ele>
        <time>2014-12-29T09:38:34Z</time>
      </trkpt>
      <trkpt lat="42.932407" lon="0.297925">
        <ele>1126.9</ele>
        <time>2014-12-29T09:38:47Z</time>
      </trkpt>
      <trkpt lat="42.932363" lon="0.298066">
        <ele>1127.7</ele>
        <time>2014-12-29T09:39:00Z</time>
      </trkpt>
      <trkpt lat="42.932283" lon="0.298145">
        <ele>1127.5</ele>
        <time>2014-12-29T09:39:13Z</time>
      </trkpt>
      <trkpt lat="42.932184" lon="0.298260">
        <ele>1128.1</ele>
        <time>2014-12-29T09:39:25Z</time>
      </trkpt>
      <trkpt lat="42.932098" lon="0.298313">
        <ele>1128.9</ele>
        <time>2014-12-29T09:39:36Z</time>
      </trkpt>
      <trkpt lat="42.932007" lon="0.298361">
        <ele>1129.2</ele>
        <time>2014-12-29T09:39:48Z</time>
      </trkpt>
      <trkpt lat="42.931911" lon="0.298410">
        <ele>1130.0</ele>
        <time>2014-12-29T09:40:02Z</time>
      </trkpt>
      <trkpt lat="42.931828" lon="0.298478">
        <ele>1131.5</ele>
        <time>2014-12-29T09:40:15Z</time>
      </trkpt>
      <trkpt lat="42.931733" lon="0.298519">
        <ele>1132.0</ele>
        <time>2014-12-29T09:40:26Z</time>
      </trkpt>
      <trkpt lat="42.931658" lon="0.298577">
        <ele>1132.6</ele>
        <time>2014-12-29T09:40:40Z</time>
      </trkpt>
      <trkpt lat="42.931572" lon="0.298601">
        <ele>1134.5</ele>
        <time>2014-12-29T09:40:55Z</time>
      </trkpt>
      <trkpt lat="42.931484" lon="0.298602">
        <ele>1134.8</ele>
        <time>2014-12-29T09:41:08Z</time>
      </trkpt>
      <trkpt lat="42.931368" lon="0.298614">
        <ele>1134.9</ele>
        <time>2014-12-29T09:41:21Z</time>
      </trkpt>
      <trkpt lat="42.931277" lon="0.298644">
        <ele>1135.4</ele>
        <time>2014-12-29T09:41:33Z</time>
      </trkpt>
      <trkpt lat="42.931187" lon="0.298702">
        <ele>1136.1</ele>
        <time>2014-12-29T09:41:46Z</time>
      </trkpt>
      <trkpt lat="42.931087" lon="0.298746">
        <ele>1137.3</ele>
        <time>2014-12-29T09:42:00Z</time>
      </trkpt>
      <trkpt lat="42.930991" lon="0.298774">
        <ele>1137.3</ele>
        <time>2014-12-29T09:42:12Z</time>
      </trkpt>
      <trkpt lat="42.930907" lon="0.298830">
        <ele>1137.4</ele>
        <time>2014-12-29T09:42:24Z</time>
      </trkpt>
      <trkpt lat="42.930821" lon="0.298885">
        <ele>1138.1</ele>
        <time>2014-12-29T09:42:36Z</time>
      </trkpt>
      <trkpt lat="42.930752" lon="0.299007">
        <ele>1139.4</ele>
        <time>2014-12-29T09:42:51Z</time>
      </trkpt>
      <trkpt lat="42.930747" lon="0.299093">
        <ele>1140.0</ele>
        <time>2014-12-29T09:43:28Z</time>
      </trkpt>
      <trkpt lat="42.930766" lon="0.299203">
        <ele>1143.9</ele>
        <time>2014-12-29T09:43:52Z</time>
      </trkpt>
      <trkpt lat="42.930811" lon="0.299306">
        <ele>1146.1</ele>
        <time>2014-12-29T09:44:10Z</time>
      </trkpt>
      <trkpt lat="42.930875" lon="0.299418">
        <ele>1149.5</ele>
        <time>2014-12-29T09:44:30Z</time>
      </trkpt>
      <trkpt lat="42.930904" lon="0.299529">
        <ele>1153.0</ele>
        <time>2014-12-29T09:44:51Z</time>
      </trkpt>
      <trkpt lat="42.930946" lon="0.299660">
        <ele>1156.2</ele>
        <time>2014-12-29T09:45:10Z</time>
      </trkpt>
      <trkpt lat="42.930985" lon="0.299791">
        <ele>1159.5</ele>
        <time>2014-12-29T09:45:30Z</time>
      </trkpt>
      <trkpt lat="42.931011" lon="0.299965">
        <ele>1162.8</ele>
        <time>2014-12-29T09:45:49Z</time>
      </trkpt>
      <trkpt lat="42.931045" lon="0.300115">
        <ele>1166.2</ele>
        <time>2014-12-29T09:46:08Z</time>
      </trkpt>
      <trkpt lat="42.931087" lon="0.300219">
        <ele>1169.0</ele>
        <time>2014-12-29T09:46:27Z</time>
      </trkpt>
      <trkpt lat="42.931140" lon="0.300337">
        <ele>1172.6</ele>
        <time>2014-12-29T09:46:48Z</time>
      </trkpt>
      <trkpt lat="42.931192" lon="0.300449">
        <ele>1176.1</ele>
        <time>2014-12-29T09:47:09Z</time>
      </trkpt>
      <trkpt lat="42.931226" lon="0.300571">
        <ele>1178.8</ele>
        <time>2014-12-29T09:47:32Z</time>
      </trkpt>
      <trkpt lat="42.931266" lon="0.300700">
        <ele>1181.7</ele>
        <time>2014-12-29T09:47:48Z</time>
      </trkpt>
      <trkpt lat="42.931300" lon="0.300839">
        <ele>1184.4</ele>
        <time>2014-12-29T09:48:03Z</time>
      </trkpt>
      <trkpt lat="42.931335" lon="0.300943">
        <ele>1187.3</ele>
        <time>2014-12-29T09:48:19Z</time>
      </trkpt>
      <trkpt lat="42.931384" lon="0.301047">
        <ele>1190.3</ele>
        <time>2014-12-29T09:48:36Z</time>
      </trkpt>
      <trkpt lat="42.931428" lon="0.301161">
        <ele>1193.5</ele>
        <time>2014-12-29T09:48:56Z</time>
      </trkpt>
      <trkpt lat="42.931479" lon="0.301277">
        <ele>1196.7</ele>
        <time>2014-12-29T09:49:13Z</time>
      </trkpt>
      <trkpt lat="42.931533" lon="0.301375">
        <ele>1199.5</ele>
        <time>2014-12-29T09:49:31Z</time>
      </trkpt>
      <trkpt lat="42.931600" lon="0.301477">
        <ele>1203.2</ele>
        <time>2014-12-29T09:49:49Z</time>
      </trkpt>
      <trkpt lat="42.931658" lon="0.301572">
        <ele>1206.0</ele>
        <time>2014-12-29T09:50:05Z</time>
      </trkpt>
      <trkpt lat="42.931709" lon="0.301682">
        <ele>1210.0</ele>
        <time>2014-12-29T09:50:23Z</time>
      </trkpt>
      <trkpt lat="42.931745" lon="0.301798">
        <ele>1213.3</ele>
        <time>2014-12-29T09:50:43Z</time>
      </trkpt>
      <trkpt lat="42.931801" lon="0.301910">
        <ele>1217.6</ele>
        <time>2014-12-29T09:51:06Z</time>
      </trkpt>
      <trkpt lat="42.931817" lon="0.302003">
        <ele>1219.9</ele>
        <time>2014-12-29T09:51:26Z</time>
      </trkpt>
      <trkpt lat="42.931834" lon="0.302085">
        <ele>1222.1</ele>
        <time>2014-12-29T09:52:07Z</time>
      </trkpt>
      <trkpt lat="42.931897" lon="0.302196">
        <ele>1223.5</ele>
        <time>2014-12-29T09:52:25Z</time>
      </trkpt>
      <trkpt lat="42.931923" lon="0.302343">
        <ele>1226.9</ele>
        <time>2014-12-29T09:52:43Z</time>
      </trkpt>
      <trkpt lat="42.931993" lon="0.302473">
        <ele>1231.2</ele>
        <time>2014-12-29T09:52:58Z</time>
      </trkpt>
      <trkpt lat="42.932077" lon="0.302619">
        <ele>1235.7</ele>
        <time>2014-12-29T09:53:18Z</time>
      </trkpt>
      <trkpt lat="42.932121" lon="0.302763">
        <ele>1238.1</ele>
        <time>2014-12-29T09:53:34Z</time>
      </trkpt>
      <trkpt lat="42.932123" lon="0.302925">
        <ele>1242.1</ele>
        <time>2014-12-29T09:53:54Z</time>
      </trkpt>
      <trkpt lat="42.932105" lon="0.303064">
        <ele>1243.3</ele>
        <time>2014-12-29T09:54:08Z</time>
      </trkpt>
      <trkpt lat="42.932103" lon="0.303223">
        <ele>1245.4</ele>
        <time>2014-12-29T09:54:26Z</time>
      </trkpt>
      <trkpt lat="42.932143" lon="0.303357">
        <ele>1247.3</ele>
        <time>2014-12-29T09:54:44Z</time>
      </trkpt>
      <trkpt lat="42.932166" lon="0.303481">
        <ele>1248.9</ele>
        <time>2014-12-29T09:55:03Z</time>
      </trkpt>
      <trkpt lat="42.932153" lon="0.303642">
        <ele>1251.0</ele>
        <time>2014-12-29T09:55:22Z</time>
      </trkpt>
      <trkpt lat="42.932166" lon="0.303805">
        <ele>1253.4</ele>
        <time>2014-12-29T09:55:38Z</time>
      </trkpt>
      <trkpt lat="42.932169" lon="0.303956">
        <ele>1256.0</ele>
        <time>2014-12-29T09:55:59Z</time>
      </trkpt>
      <trkpt lat="42.932211" lon="0.304126">
        <ele>1259.7</ele>
        <time>2014-12-29T09:56:21Z</time>
      </trkpt>
      <trkpt lat="42.932235" lon="0.304271">
        <ele>1262.6</ele>
        <time>2014-12-29T09:56:41Z</time>
      </trkpt>
      <trkpt lat="42.932264" lon="0.304464">
        <ele>1264.9</ele>
        <time>2014-12-29T09:57:00Z</time>
      </trkpt>
      <trkpt lat="42.932271" lon="0.304606">
        <ele>1267.5</ele>
        <time>2014-12-29T09:57:17Z</time>
      </trkpt>
      <trkpt lat="42.932289" lon="0.304728">
        <ele>1270.4</ele>
        <time>2014-12-29T09:57:34Z</time>
      </trkpt>
      <trkpt lat="42.932318" lon="0.304870">
        <ele>1273.5</ele>
        <time>2014-12-29T09:57:57Z</time>
      </trkpt>
      <trkpt lat="42.932362" lon="0.305010">
        <ele>1275.9</ele>
        <time>2014-12-29T09:58:17Z</time>
      </trkpt>
      <trkpt lat="42.932413" lon="0.305175">
        <ele>1278.8</ele>
        <time>2014-12-29T09:58:36Z</time>
      </trkpt>
      <trkpt lat="42.932411" lon="0.305339">
        <ele>1280.6</ele>
        <time>2014-12-29T09:58:55Z</time>
      </trkpt>
      <trkpt lat="42.932416" lon="0.305499">
        <ele>1282.6</ele>
        <time>2014-12-29T09:59:16Z</time>
      </trkpt>
      <trkpt lat="42.932431" lon="0.305672">
        <ele>1284.3</ele>
        <time>2014-12-29T09:59:35Z</time>
      </trkpt>
      <trkpt lat="42.932464" lon="0.305826">
        <ele>1286.2</ele>
        <time>2014-12-29T09:59:54Z</time>
      </trkpt>
      <trkpt lat="42.932499" lon="0.305967">
        <ele>1288.6</ele>
        <time>2014-12-29T10:00:13Z</time>
      </trkpt>
      <trkpt lat="42.932548" lon="0.306091">
        <ele>1290.9</ele>
        <time>2014-12-29T10:00:32Z</time>
      </trkpt>
      <trkpt lat="42.932601" lon="0.306225">
        <ele>1293.7</ele>
        <time>2014-12-29T10:00:53Z</time>
      </trkpt>
      <trkpt lat="42.932672" lon="0.306335">
        <ele>1296.6</ele>
        <time>2014-12-29T10:01:11Z</time>
      </trkpt>
      <trkpt lat="42.932665" lon="0.306497">
        <ele>1298.2</ele>
        <time>2014-12-29T10:01:31Z</time>
      </trkpt>
      <trkpt lat="42.932817" lon="0.306793">
        <ele>1304.7</ele>
        <time>2014-12-29T10:06:00Z</time>
      </trkpt>
      <trkpt lat="42.932862" lon="0.306920">
        <ele>1305.4</ele>
        <time>2014-12-29T10:06:21Z</time>
      </trkpt>
      <trkpt lat="42.932936" lon="0.307056">
        <ele>1308.8</ele>
        <time>2014-12-29T10:06:40Z</time>
      </trkpt>
      <trkpt lat="42.933032" lon="0.307189">
        <ele>1311.4</ele>
        <time>2014-12-29T10:06:59Z</time>
      </trkpt>
      <trkpt lat="42.933063" lon="0.307348">
        <ele>1314.5</ele>
        <time>2014-12-29T10:07:18Z</time>
      </trkpt>
      <trkpt lat="42.933131" lon="0.307451">
        <ele>1317.9</ele>
        <time>2014-12-29T10:07:41Z</time>
      </trkpt>
      <trkpt lat="42.933199" lon="0.307542">
        <ele>1321.5</ele>
        <time>2014-12-29T10:08:04Z</time>
      </trkpt>
      <trkpt lat="42.933212" lon="0.307671">
        <ele>1325.7</ele>
        <time>2014-12-29T10:08:26Z</time>
      </trkpt>
      <trkpt lat="42.933219" lon="0.307830">
        <ele>1328.8</ele>
        <time>2014-12-29T10:08:47Z</time>
      </trkpt>
      <trkpt lat="42.933257" lon="0.307963">
        <ele>1331.7</ele>
        <time>2014-12-29T10:09:05Z</time>
      </trkpt>
      <trkpt lat="42.933274" lon="0.308089">
        <ele>1334.3</ele>
        <time>2014-12-29T10:09:24Z</time>
      </trkpt>
      <trkpt lat="42.933304" lon="0.308202">
        <ele>1336.9</ele>
        <time>2014-12-29T10:09:42Z</time>
      </trkpt>
      <trkpt lat="42.933341" lon="0.308311">
        <ele>1340.0</ele>
        <time>2014-12-29T10:10:03Z</time>
      </trkpt>
      <trkpt lat="42.933380" lon="0.308458">
        <ele>1343.9</ele>
        <time>2014-12-29T10:10:23Z</time>
      </trkpt>
      <trkpt lat="42.933421" lon="0.308609">
        <ele>1347.2</ele>
        <time>2014-12-29T10:10:47Z</time>
      </trkpt>
      <trkpt lat="42.933445" lon="0.308762">
        <ele>1350.4</ele>
        <time>2014-12-29T10:11:09Z</time>
      </trkpt>
      <trkpt lat="42.933446" lon="0.308888">
        <ele>1353.3</ele>
        <time>2014-12-29T10:11:30Z</time>
      </trkpt>
      <trkpt lat="42.933470" lon="0.309010">
        <ele>1356.2</ele>
        <time>2014-12-29T10:11:52Z</time>
      </trkpt>
      <trkpt lat="42.933508" lon="0.309137">
        <ele>1359.9</ele>
        <time>2014-12-29T10:12:11Z</time>
      </trkpt>
      <trkpt lat="42.933522" lon="0.309262">
        <ele>1363.8</ele>
        <time>2014-12-29T10:12:35Z</time>
      </trkpt>
      <trkpt lat="42.933537" lon="0.309360">
        <ele>1368.0</ele>
        <time>2014-12-29T10:12:58Z</time>
      </trkpt>
      <trkpt lat="42.933577" lon="0.309466">
        <ele>1371.7</ele>
        <time>2014-12-29T10:13:21Z</time>
      </trkpt>
      <trkpt lat="42.933626" lon="0.309600">
        <ele>1374.6</ele>
        <time>2014-12-29T10:13:43Z</time>
      </trkpt>
      <trkpt lat="42.933639" lon="0.309729">
        <ele>1376.9</ele>
        <time>2014-12-29T10:14:03Z</time>
      </trkpt>
      <trkpt lat="42.933656" lon="0.309900">
        <ele>1379.2</ele>
        <time>2014-12-29T10:14:23Z</time>
      </trkpt>
      <trkpt lat="42.933666" lon="0.310032">
        <ele>1381.2</ele>
        <time>2014-12-29T10:14:40Z</time>
      </trkpt>
      <trkpt lat="42.933643" lon="0.310170">
        <ele>1384.4</ele>
        <time>2014-12-29T10:15:00Z</time>
      </trkpt>
      <trkpt lat="42.933654" lon="0.310302">
        <ele>1387.1</ele>
        <time>2014-12-29T10:15:18Z</time>
      </trkpt>
      <trkpt lat="42.933671" lon="0.310440">
        <ele>1390.7</ele>
        <time>2014-12-29T10:15:40Z</time>
      </trkpt>
      <trkpt lat="42.933646" lon="0.310566">
        <ele>1392.5</ele>
        <time>2014-12-29T10:15:55Z</time>
      </trkpt>
      <trkpt lat="42.933594" lon="0.310676">
        <ele>1394.8</ele>
        <time>2014-12-29T10:16:11Z</time>
      </trkpt>
      <trkpt lat="42.933563" lon="0.310806">
        <ele>1397.7</ele>
        <time>2014-12-29T10:20:12Z</time>
      </trkpt>
      <trkpt lat="42.933629" lon="0.310900">
        <ele>1399.9</ele>
        <time>2014-12-29T10:20:28Z</time>
      </trkpt>
      <trkpt lat="42.933636" lon="0.311053">
        <ele>1402.1</ele>
        <time>2014-12-29T10:20:45Z</time>
      </trkpt>
      <trkpt lat="42.933664" lon="0.311194">
        <ele>1405.8</ele>
        <time>2014-12-29T10:21:05Z</time>
      </trkpt>
      <trkpt lat="42.933696" lon="0.311317">
        <ele>1408.0</ele>
        <time>2014-12-29T10:21:23Z</time>
      </trkpt>
      <trkpt lat="42.933726" lon="0.311431">
        <ele>1409.5</ele>
        <time>2014-12-29T10:21:41Z</time>
      </trkpt>
      <trkpt lat="42.933759" lon="0.311595">
        <ele>1411.8</ele>
        <time>2014-12-29T10:21:57Z</time>
      </trkpt>
      <trkpt lat="42.933766" lon="0.311752">
        <ele>1414.2</ele>
        <time>2014-12-29T10:22:16Z</time>
      </trkpt>
      <trkpt lat="42.933782" lon="0.311886">
        <ele>1416.8</ele>
        <time>2014-12-29T10:22:35Z</time>
      </trkpt>
      <trkpt lat="42.933776" lon="0.312036">
        <ele>1419.6</ele>
        <time>2014-12-29T10:22:52Z</time>
      </trkpt>
      <trkpt lat="42.933752" lon="0.312231">
        <ele>1421.8</ele>
        <time>2014-12-29T10:23:12Z</time>
      </trkpt>
      <trkpt lat="42.933715" lon="0.312357">
        <ele>1425.4</ele>
        <time>2014-12-29T10:23:31Z</time>
      </trkpt>
      <trkpt lat="42.933670" lon="0.312479">
        <ele>1429.6</ele>
        <time>2014-12-29T10:23:56Z</time>
      </trkpt>
      <trkpt lat="42.933662" lon="0.312621">
        <ele>1433.5</ele>
        <time>2014-12-29T10:24:16Z</time>
      </trkpt>
      <trkpt lat="42.933686" lon="0.312746">
        <ele>1436.3</ele>
        <time>2014-12-29T10:24:35Z</time>
      </trkpt>
      <trkpt lat="42.933691" lon="0.312879">
        <ele>1439.8</ele>
        <time>2014-12-29T10:24:56Z</time>
      </trkpt>
      <trkpt lat="42.933639" lon="0.312992">
        <ele>1443.4</ele>
        <time>2014-12-29T10:25:16Z</time>
      </trkpt>
      <trkpt lat="42.933632" lon="0.313139">
        <ele>1446.9</ele>
        <time>2014-12-29T10:25:39Z</time>
      </trkpt>
      <trkpt lat="42.933620" lon="0.313251">
        <ele>1450.5</ele>
        <time>2014-12-29T10:25:59Z</time>
      </trkpt>
      <trkpt lat="42.933580" lon="0.313386">
        <ele>1454.0</ele>
        <time>2014-12-29T10:26:20Z</time>
      </trkpt>
      <trkpt lat="42.933552" lon="0.313509">
        <ele>1457.1</ele>
        <time>2014-12-29T10:26:42Z</time>
      </trkpt>
      <trkpt lat="42.933554" lon="0.313619">
        <ele>1461.3</ele>
        <time>2014-12-29T10:27:09Z</time>
      </trkpt>
      <trkpt lat="42.933529" lon="0.313645">
        <ele>1461.1</ele>
        <time>2014-12-29T10:27:59Z</time>
      </trkpt>
      <trkpt lat="42.933536" lon="0.313746">
        <ele>1463.5</ele>
        <time>2014-12-29T10:28:27Z</time>
      </trkpt>
      <trkpt lat="42.933514" lon="0.313886">
        <ele>1469.2</ele>
        <time>2014-12-29T10:28:50Z</time>
      </trkpt>
      <trkpt lat="42.933512" lon="0.314012">
        <ele>1473.5</ele>
        <time>2014-12-29T10:29:12Z</time>
      </trkpt>
      <trkpt lat="42.933521" lon="0.314149">
        <ele>1477.7</ele>
        <time>2014-12-29T10:29:44Z</time>
      </trkpt>
      <trkpt lat="42.933532" lon="0.314278">
        <ele>1482.2</ele>
        <time>2014-12-29T10:30:04Z</time>
      </trkpt>
      <trkpt lat="42.933536" lon="0.314394">
        <ele>1485.9</ele>
        <time>2014-12-29T10:30:27Z</time>
      </trkpt>
      <trkpt lat="42.933545" lon="0.314502">
        <ele>1489.4</ele>
        <time>2014-12-29T10:30:51Z</time>
      </trkpt>
      <trkpt lat="42.933537" lon="0.314626">
        <ele>1494.0</ele>
        <time>2014-12-29T10:31:15Z</time>
      </trkpt>
      <trkpt lat="42.933511" lon="0.314748">
        <ele>1497.8</ele>
        <time>2014-12-29T10:31:40Z</time>
      </trkpt>
      <trkpt lat="42.933505" lon="0.314871">
        <ele>1503.1</ele>
        <time>2014-12-29T10:32:09Z</time>
      </trkpt>
      <trkpt lat="42.933493" lon="0.315004">
        <ele>1507.0</ele>
        <time>2014-12-29T10:32:31Z</time>
      </trkpt>
      <trkpt lat="42.933454" lon="0.315125">
        <ele>1510.7</ele>
        <time>2014-12-29T10:32:54Z</time>
      </trkpt>
      <trkpt lat="42.933425" lon="0.315253">
        <ele>1514.3</ele>
        <time>2014-12-29T10:33:18Z</time>
      </trkpt>
      <trkpt lat="42.933409" lon="0.315367">
        <ele>1519.1</ele>
        <time>2014-12-29T10:33:48Z</time>
      </trkpt>
      <trkpt lat="42.933409" lon="0.315503">
        <ele>1523.6</ele>
        <time>2014-12-29T10:34:10Z</time>
      </trkpt>
      <trkpt lat="42.933394" lon="0.315641">
        <ele>1527.9</ele>
        <time>2014-12-29T10:34:32Z</time>
      </trkpt>
      <trkpt lat="42.933364" lon="0.315743">
        <ele>1531.5</ele>
        <time>2014-12-29T10:34:59Z</time>
      </trkpt>
      <trkpt lat="42.933319" lon="0.315836">
        <ele>1533.6</ele>
        <time>2014-12-29T10:35:29Z</time>
      </trkpt>
      <trkpt lat="42.933295" lon="0.315974">
        <ele>1536.6</ele>
        <time>2014-12-29T10:35:48Z</time>
      </trkpt>
      <trkpt lat="42.933272" lon="0.316098">
        <ele>1540.6</ele>
        <time>2014-12-29T10:36:08Z</time>
      </trkpt>
      <trkpt lat="42.933244" lon="0.316241">
        <ele>1543.2</ele>
        <time>2014-12-29T10:36:31Z</time>
      </trkpt>
      <trkpt lat="42.933205" lon="0.316354">
        <ele>1546.2</ele>
        <time>2014-12-29T10:36:53Z</time>
      </trkpt>
      <trkpt lat="42.933186" lon="0.316478">
        <ele>1547.9</ele>
        <time>2014-12-29T10:37:17Z</time>
      </trkpt>
      <trkpt lat="42.933150" lon="0.316611">
        <ele>1550.8</ele>
        <time>2014-12-29T10:37:36Z</time>
      </trkpt>
      <trkpt lat="42.933105" lon="0.316730">
        <ele>1553.2</ele>
        <time>2014-12-29T10:37:56Z</time>
      </trkpt>
      <trkpt lat="42.933040" lon="0.316829">
        <ele>1556.5</ele>
        <time>2014-12-29T10:38:24Z</time>
      </trkpt>
      <trkpt lat="42.932992" lon="0.316951">
        <ele>1558.8</ele>
        <time>2014-12-29T10:38:46Z</time>
      </trkpt>
      <trkpt lat="42.932923" lon="0.317066">
        <ele>1561.5</ele>
        <time>2014-12-29T10:39:08Z</time>
      </trkpt>
      <trkpt lat="42.932867" lon="0.317183">
        <ele>1564.7</ele>
        <time>2014-12-29T10:39:31Z</time>
      </trkpt>
      <trkpt lat="42.932826" lon="0.317289">
        <ele>1566.8</ele>
        <time>2014-12-29T10:39:51Z</time>
      </trkpt>
      <trkpt lat="42.932779" lon="0.317403">
        <ele>1570.7</ele>
        <time>2014-12-29T10:40:13Z</time>
      </trkpt>
      <trkpt lat="42.932749" lon="0.317531">
        <ele>1574.3</ele>
        <time>2014-12-29T10:40:37Z</time>
      </trkpt>
      <trkpt lat="42.932698" lon="0.317648">
        <ele>1578.1</ele>
        <time>2014-12-29T10:41:02Z</time>
      </trkpt>
      <trkpt lat="42.932644" lon="0.317764">
        <ele>1581.2</ele>
        <time>2014-12-29T10:41:23Z</time>
      </trkpt>
      <trkpt lat="42.932636" lon="0.317903">
        <ele>1583.9</ele>
        <time>2014-12-29T10:41:39Z</time>
      </trkpt>
      <trkpt lat="42.932600" lon="0.318031">
        <ele>1588.2</ele>
        <time>2014-12-29T10:42:01Z</time>
      </trkpt>
      <trkpt lat="42.932552" lon="0.318135">
        <ele>1591.6</ele>
        <time>2014-12-29T10:42:23Z</time>
      </trkpt>
      <trkpt lat="42.932530" lon="0.318251">
        <ele>1595.2</ele>
        <time>2014-12-29T10:42:43Z</time>
      </trkpt>
      <trkpt lat="42.932452" lon="0.318395">
        <ele>1598.6</ele>
        <time>2014-12-29T10:43:01Z</time>
      </trkpt>
      <trkpt lat="42.932384" lon="0.318485">
        <ele>1600.3</ele>
        <time>2014-12-29T10:43:17Z</time>
      </trkpt>
      <trkpt lat="42.932366" lon="0.318622">
        <ele>1603.4</ele>
        <time>2014-12-29T10:43:35Z</time>
      </trkpt>
      <trkpt lat="42.932344" lon="0.318733">
        <ele>1605.7</ele>
        <time>2014-12-29T10:43:55Z</time>
      </trkpt>
      <trkpt lat="42.932324" lon="0.318846">
        <ele>1607.4</ele>
        <time>2014-12-29T10:44:14Z</time>
      </trkpt>
      <trkpt lat="42.932245" lon="0.318921">
        <ele>1609.8</ele>
        <time>2014-12-29T10:44:32Z</time>
      </trkpt>
      <trkpt lat="42.932219" lon="0.319039">
        <ele>1611.8</ele>
        <time>2014-12-29T10:44:53Z</time>
      </trkpt>
      <trkpt lat="42.932179" lon="0.319141">
        <ele>1613.6</ele>
        <time>2014-12-29T10:45:18Z</time>
      </trkpt>
      <trkpt lat="42.932105" lon="0.319234">
        <ele>1615.6</ele>
        <time>2014-12-29T10:45:40Z</time>
      </trkpt>
      <trkpt lat="42.932023" lon="0.319296">
        <ele>1616.3</ele>
        <time>2014-12-29T10:46:00Z</time>
      </trkpt>
      <trkpt lat="42.931949" lon="0.319387">
        <ele>1617.5</ele>
        <time>2014-12-29T10:46:15Z</time>
      </trkpt>
      <trkpt lat="42.931858" lon="0.319448">
        <ele>1617.6</ele>
        <time>2014-12-29T10:46:31Z</time>
      </trkpt>
      <trkpt lat="42.931784" lon="0.319522">
        <ele>1617.7</ele>
        <time>2014-12-29T10:46:45Z</time>
      </trkpt>
      <trkpt lat="42.931688" lon="0.319599">
        <ele>1617.4</ele>
        <time>2014-12-29T10:47:00Z</time>
      </trkpt>
      <trkpt lat="42.931607" lon="0.319670">
        <ele>1617.1</ele>
        <time>2014-12-29T10:47:13Z</time>
      </trkpt>
      <trkpt lat="42.931517" lon="0.319740">
        <ele>1616.4</ele>
        <time>2014-12-29T10:47:26Z</time>
      </trkpt>
      <trkpt lat="42.931439" lon="0.319818">
        <ele>1616.4</ele>
        <time>2014-12-29T10:47:39Z</time>
      </trkpt>
      <trkpt lat="42.931352" lon="0.319887">
        <ele>1616.1</ele>
        <time>2014-12-29T10:47:52Z</time>
      </trkpt>
      <trkpt lat="42.931260" lon="0.319933">
        <ele>1615.7</ele>
        <time>2014-12-29T10:48:03Z</time>
      </trkpt>
      <trkpt lat="42.931168" lon="0.320015">
        <ele>1615.0</ele>
        <time>2014-12-29T10:48:16Z</time>
      </trkpt>
      <trkpt lat="42.931060" lon="0.320037">
        <ele>1614.9</ele>
        <time>2014-12-29T10:48:28Z</time>
      </trkpt>
      <trkpt lat="42.930956" lon="0.320060">
        <ele>1614.9</ele>
        <time>2014-12-29T10:48:41Z</time>
      </trkpt>
      <trkpt lat="42.930875" lon="0.320111">
        <ele>1614.8</ele>
        <time>2014-12-29T10:48:53Z</time>
      </trkpt>
      <trkpt lat="42.930799" lon="0.320188">
        <ele>1615.4</ele>
        <time>2014-12-29T10:49:04Z</time>
      </trkpt>
      <trkpt lat="42.930708" lon="0.320221">
        <ele>1615.7</ele>
        <time>2014-12-29T10:49:17Z</time>
      </trkpt>
      <trkpt lat="42.930613" lon="0.320239">
        <ele>1615.2</ele>
        <time>2014-12-29T10:49:28Z</time>
      </trkpt>
      <trkpt lat="42.930532" lon="0.320266">
        <ele>1614.6</ele>
        <time>2014-12-29T10:49:37Z</time>
      </trkpt>
      <trkpt lat="42.930430" lon="0.320276">
        <ele>1613.8</ele>
        <time>2014-12-29T10:49:48Z</time>
      </trkpt>
      <trkpt lat="42.930337" lon="0.320285">
        <ele>1613.1</ele>
        <time>2014-12-29T10:49:58Z</time>
      </trkpt>
      <trkpt lat="42.930333" lon="0.320287">
        <ele>1611.0</ele>
        <time>2014-12-29T10:57:07Z</time>
      </trkpt>
      <trkpt lat="42.930256" lon="0.320209">
        <ele>1610.3</ele>
        <time>2014-12-29T10:57:16Z</time>
      </trkpt>
      <trkpt lat="42.930192" lon="0.320120">
        <ele>1609.0</ele>
        <time>2014-12-29T10:57:23Z</time>
      </trkpt>
      <trkpt lat="42.930129" lon="0.320006">
        <ele>1607.8</ele>
        <time>2014-12-29T10:57:32Z</time>
      </trkpt>
      <trkpt lat="42.930070" lon="0.319907">
        <ele>1607.4</ele>
        <time>2014-12-29T10:57:41Z</time>
      </trkpt>
      <trkpt lat="42.930031" lon="0.319783">
        <ele>1606.4</ele>
        <time>2014-12-29T10:57:52Z</time>
      </trkpt>
      <trkpt lat="42.929982" lon="0.319677">
        <ele>1605.3</ele>
        <time>2014-12-29T10:58:02Z</time>
      </trkpt>
      <trkpt lat="42.929906" lon="0.319571">
        <ele>1604.5</ele>
        <time>2014-12-29T10:58:13Z</time>
      </trkpt>
      <trkpt lat="42.929836" lon="0.319476">
        <ele>1604.1</ele>
        <time>2014-12-29T10:58:25Z</time>
      </trkpt>
      <trkpt lat="42.929769" lon="0.319379">
        <ele>1603.3</ele>
        <time>2014-12-29T10:58:43Z</time>
      </trkpt>
      <trkpt lat="42.929693" lon="0.319320">
        <ele>1603.4</ele>
        <time>2014-12-29T10:58:56Z</time>
      </trkpt>
      <trkpt lat="42.929655" lon="0.319207">
        <ele>1603.5</ele>
        <time>2014-12-29T10:59:10Z</time>
      </trkpt>
      <trkpt lat="42.929614" lon="0.319079">
        <ele>1603.5</ele>
        <time>2014-12-29T10:59:26Z</time>
      </trkpt>
      <trkpt lat="42.929551" lon="0.318965">
        <ele>1603.8</ele>
        <time>2014-12-29T10:59:41Z</time>
      </trkpt>
      <trkpt lat="42.929468" lon="0.318884">
        <ele>1604.1</ele>
        <time>2014-12-29T10:59:57Z</time>
      </trkpt>
      <trkpt lat="42.929376" lon="0.318811">
        <ele>1605.1</ele>
        <time>2014-12-29T11:00:11Z</time>
      </trkpt>
      <trkpt lat="42.929279" lon="0.318751">
        <ele>1604.9</ele>
        <time>2014-12-29T11:00:22Z</time>
      </trkpt>
      <trkpt lat="42.929204" lon="0.318644">
        <ele>1604.3</ele>
        <time>2014-12-29T11:00:35Z</time>
      </trkpt>
      <trkpt lat="42.929118" lon="0.318609">
        <ele>1604.0</ele>
        <time>2014-12-29T11:00:50Z</time>
      </trkpt>
      <trkpt lat="42.929029" lon="0.318542">
        <ele>1603.6</ele>
        <time>2014-12-29T11:01:03Z</time>
      </trkpt>
      <trkpt lat="42.928957" lon="0.318443">
        <ele>1603.2</ele>
        <time>2014-12-29T11:01:16Z</time>
      </trkpt>
      <trkpt lat="42.928875" lon="0.318363">
        <ele>1602.8</ele>
        <time>2014-12-29T11:01:36Z</time>
      </trkpt>
      <trkpt lat="42.928798" lon="0.318241">
        <ele>1602.8</ele>
        <time>2014-12-29T11:01:50Z</time>
      </trkpt>
      <trkpt lat="42.928734" lon="0.318123">
        <ele>1604.7</ele>
        <time>2014-12-29T11:02:05Z</time>
      </trkpt>
      <trkpt lat="42.928722" lon="0.317982">
        <ele>1603.3</ele>
        <time>2014-12-29T11:02:20Z</time>
      </trkpt>
      <trkpt lat="42.928714" lon="0.317886">
        <ele>1601.8</ele>
        <time>2014-12-29T11:02:49Z</time>
      </trkpt>
      <trkpt lat="42.928686" lon="0.317702">
        <ele>1599.8</ele>
        <time>2014-12-29T11:03:05Z</time>
      </trkpt>
      <trkpt lat="42.928616" lon="0.317567">
        <ele>1598.3</ele>
        <time>2014-12-29T11:03:20Z</time>
      </trkpt>
      <trkpt lat="42.928555" lon="0.317498">
        <ele>1599.4</ele>
        <time>2014-12-29T11:03:37Z</time>
      </trkpt>
      <trkpt lat="42.928485" lon="0.317428">
        <ele>1599.6</ele>
        <time>2014-12-29T11:03:57Z</time>
      </trkpt>
      <trkpt lat="42.928387" lon="0.317411">
        <ele>1599.7</ele>
        <time>2014-12-29T11:04:14Z</time>
      </trkpt>
      <trkpt lat="42.928281" lon="0.317406">
        <ele>1600.3</ele>
        <time>2014-12-29T11:04:28Z</time>
      </trkpt>
      <trkpt lat="42.928227" lon="0.317362">
        <ele>1599.8</ele>
        <time>2014-12-29T11:04:51Z</time>
      </trkpt>
      <trkpt lat="42.928112" lon="0.317342">
        <ele>1599.5</ele>
        <time>2014-12-29T11:05:10Z</time>
      </trkpt>
      <trkpt lat="42.928009" lon="0.317322">
        <ele>1599.2</ele>
        <time>2014-12-29T11:05:30Z</time>
      </trkpt>
      <trkpt lat="42.927920" lon="0.317330">
        <ele>1598.9</ele>
        <time>2014-12-29T11:05:54Z</time>
      </trkpt>
      <trkpt lat="42.927840" lon="0.317270">
        <ele>1599.0</ele>
        <time>2014-12-29T11:06:14Z</time>
      </trkpt>
      <trkpt lat="42.927728" lon="0.317213">
        <ele>1597.1</ele>
        <time>2014-12-29T11:06:31Z</time>
      </trkpt>
      <trkpt lat="42.927616" lon="0.317161">
        <ele>1595.5</ele>
        <time>2014-12-29T11:06:48Z</time>
      </trkpt>
      <trkpt lat="42.927510" lon="0.317131">
        <ele>1595.5</ele>
        <time>2014-12-29T11:07:04Z</time>
      </trkpt>
      <trkpt lat="42.927416" lon="0.317137">
        <ele>1595.6</ele>
        <time>2014-12-29T11:07:26Z</time>
      </trkpt>
      <trkpt lat="42.927354" lon="0.317090">
        <ele>1596.6</ele>
        <time>2014-12-29T11:07:51Z</time>
      </trkpt>
      <trkpt lat="42.927241" lon="0.317022">
        <ele>1595.3</ele>
        <time>2014-12-29T11:08:07Z</time>
      </trkpt>
      <trkpt lat="42.927138" lon="0.316965">
        <ele>1594.8</ele>
        <time>2014-12-29T11:08:18Z</time>
      </trkpt>
      <trkpt lat="42.927033" lon="0.316889">
        <ele>1593.9</ele>
        <time>2014-12-29T11:08:32Z</time>
      </trkpt>
      <trkpt lat="42.926976" lon="0.316787">
        <ele>1594.5</ele>
        <time>2014-12-29T11:08:45Z</time>
      </trkpt>
      <trkpt lat="42.926920" lon="0.316703">
        <ele>1594.4</ele>
        <time>2014-12-29T11:09:02Z</time>
      </trkpt>
      <trkpt lat="42.926799" lon="0.316633">
        <ele>1594.2</ele>
        <time>2014-12-29T11:09:16Z</time>
      </trkpt>
      <trkpt lat="42.926707" lon="0.316528">
        <ele>1594.8</ele>
        <time>2014-12-29T11:09:34Z</time>
      </trkpt>
      <trkpt lat="42.926636" lon="0.316429">
        <ele>1595.0</ele>
        <time>2014-12-29T11:09:59Z</time>
      </trkpt>
      <trkpt lat="42.926619" lon="0.316357">
        <ele>1593.8</ele>
        <time>2014-12-29T11:10:16Z</time>
      </trkpt>
      <trkpt lat="42.926530" lon="0.316299">
        <ele>1593.9</ele>
        <time>2014-12-29T11:10:33Z</time>
      </trkpt>
      <trkpt lat="42.926436" lon="0.316282">
        <ele>1595.8</ele>
        <time>2014-12-29T11:10:54Z</time>
      </trkpt>
      <trkpt lat="42.926364" lon="0.316310">
        <ele>1598.3</ele>
        <time>2014-12-29T11:11:17Z</time>
      </trkpt>
      <trkpt lat="42.926275" lon="0.316320">
        <ele>1599.3</ele>
        <time>2014-12-29T11:11:35Z</time>
      </trkpt>
      <trkpt lat="42.926190" lon="0.316308">
        <ele>1602.3</ele>
        <time>2014-12-29T11:11:56Z</time>
      </trkpt>
      <trkpt lat="42.926107" lon="0.316302">
        <ele>1604.2</ele>
        <time>2014-12-29T11:12:17Z</time>
      </trkpt>
      <trkpt lat="42.926021" lon="0.316329">
        <ele>1606.7</ele>
        <time>2014-12-29T11:12:35Z</time>
      </trkpt>
      <trkpt lat="42.925953" lon="0.316305">
        <ele>1608.4</ele>
        <time>2014-12-29T11:12:53Z</time>
      </trkpt>
      <trkpt lat="42.925886" lon="0.316245">
        <ele>1609.5</ele>
        <time>2014-12-29T11:13:25Z</time>
      </trkpt>
      <trkpt lat="42.925816" lon="0.316186">
        <ele>1611.5</ele>
        <time>2014-12-29T11:13:52Z</time>
      </trkpt>
      <trkpt lat="42.925731" lon="0.316132">
        <ele>1613.4</ele>
        <time>2014-12-29T11:14:23Z</time>
      </trkpt>
      <trkpt lat="42.925655" lon="0.316063">
        <ele>1615.7</ele>
        <time>2014-12-29T11:14:45Z</time>
      </trkpt>
      <trkpt lat="42.925587" lon="0.316050">
        <ele>1617.7</ele>
        <time>2014-12-29T11:15:15Z</time>
      </trkpt>
      <trkpt lat="42.925514" lon="0.315968">
        <ele>1617.8</ele>
        <time>2014-12-29T11:15:38Z</time>
      </trkpt>
      <trkpt lat="42.925442" lon="0.315907">
        <ele>1618.6</ele>
        <time>2014-12-29T11:16:06Z</time>
      </trkpt>
      <trkpt lat="42.925398" lon="0.315902">
        <ele>1619.9</ele>
        <time>2014-12-29T11:16:53Z</time>
      </trkpt>
      <trkpt lat="42.925430" lon="0.316025">
        <ele>1622.0</ele>
        <time>2014-12-29T11:17:13Z</time>
      </trkpt>
      <trkpt lat="42.925468" lon="0.316152">
        <ele>1623.6</ele>
        <time>2014-12-29T11:17:34Z</time>
      </trkpt>
      <trkpt lat="42.925504" lon="0.316270">
        <ele>1624.6</ele>
        <time>2014-12-29T11:17:54Z</time>
      </trkpt>
      <trkpt lat="42.925498" lon="0.316376">
        <ele>1626.0</ele>
        <time>2014-12-29T11:18:15Z</time>
      </trkpt>
      <trkpt lat="42.925415" lon="0.316386">
        <ele>1628.7</ele>
        <time>2014-12-29T11:18:40Z</time>
      </trkpt>
      <trkpt lat="42.925376" lon="0.316407">
        <ele>1630.4</ele>
        <time>2014-12-29T11:19:05Z</time>
      </trkpt>
      <trkpt lat="42.925324" lon="0.316333">
        <ele>1630.4</ele>
        <time>2014-12-29T11:19:23Z</time>
      </trkpt>
      <trkpt lat="42.925254" lon="0.316281">
        <ele>1632.6</ele>
        <time>2014-12-29T11:19:55Z</time>
      </trkpt>
      <trkpt lat="42.925184" lon="0.316201">
        <ele>1634.6</ele>
        <time>2014-12-29T11:20:13Z</time>
      </trkpt>
      <trkpt lat="42.925129" lon="0.316099">
        <ele>1634.9</ele>
        <time>2014-12-29T11:20:29Z</time>
      </trkpt>
      <trkpt lat="42.925091" lon="0.315979">
        <ele>1634.7</ele>
        <time>2014-12-29T11:20:49Z</time>
      </trkpt>
      <trkpt lat="42.925035" lon="0.315887">
        <ele>1634.4</ele>
        <time>2014-12-29T11:21:10Z</time>
      </trkpt>
      <trkpt lat="42.924971" lon="0.315789">
        <ele>1634.9</ele>
        <time>2014-12-29T11:21:32Z</time>
      </trkpt>
      <trkpt lat="42.924897" lon="0.315698">
        <ele>1637.9</ele>
        <time>2014-12-29T11:21:52Z</time>
      </trkpt>
      <trkpt lat="42.924822" lon="0.315624">
        <ele>1639.4</ele>
        <time>2014-12-29T11:22:11Z</time>
      </trkpt>
      <trkpt lat="42.924774" lon="0.315525">
        <ele>1641.7</ele>
        <time>2014-12-29T11:22:39Z</time>
      </trkpt>
      <trkpt lat="42.924697" lon="0.315418">
        <ele>1643.3</ele>
        <time>2014-12-29T11:22:56Z</time>
      </trkpt>
      <trkpt lat="42.924609" lon="0.315358">
        <ele>1642.4</ele>
        <time>2014-12-29T11:23:12Z</time>
      </trkpt>
      <trkpt lat="42.924532" lon="0.315269">
        <ele>1641.7</ele>
        <time>2014-12-29T11:23:35Z</time>
      </trkpt>
      <trkpt lat="42.924426" lon="0.315184">
        <ele>1642.8</ele>
        <time>2014-12-29T11:23:52Z</time>
      </trkpt>
      <trkpt lat="42.924333" lon="0.315138">
        <ele>1644.5</ele>
        <time>2014-12-29T11:24:10Z</time>
      </trkpt>
      <trkpt lat="42.924256" lon="0.315075">
        <ele>1646.4</ele>
        <time>2014-12-29T11:24:29Z</time>
      </trkpt>
      <trkpt lat="42.924164" lon="0.315022">
        <ele>1648.4</ele>
        <time>2014-12-29T11:24:47Z</time>
      </trkpt>
      <trkpt lat="42.924079" lon="0.314998">
        <ele>1651.1</ele>
        <time>2014-12-29T11:25:07Z</time>
      </trkpt>
      <trkpt lat="42.924000" lon="0.314980">
        <ele>1654.0</ele>
        <time>2014-12-29T11:25:29Z</time>
      </trkpt>
      <trkpt lat="42.923945" lon="0.314942">
        <ele>1656.0</ele>
        <time>2014-12-29T11:25:49Z</time>
      </trkpt>
      <trkpt lat="42.923858" lon="0.314970">
        <ele>1658.8</ele>
        <time>2014-12-29T11:26:11Z</time>
      </trkpt>
      <trkpt lat="42.923773" lon="0.314963">
        <ele>1661.9</ele>
        <time>2014-12-29T11:26:31Z</time>
      </trkpt>
      <trkpt lat="42.923689" lon="0.314945">
        <ele>1666.1</ele>
        <time>2014-12-29T11:27:02Z</time>
      </trkpt>
      <trkpt lat="42.923621" lon="0.315036">
        <ele>1669.1</ele>
        <time>2014-12-29T11:27:22Z</time>
      </trkpt>
      <trkpt lat="42.923555" lon="0.315036">
        <ele>1672.0</ele>
        <time>2014-12-29T11:27:58Z</time>
      </trkpt>
      <trkpt lat="42.923515" lon="0.315065">
        <ele>1673.9</ele>
        <time>2014-12-29T11:28:24Z</time>
      </trkpt>
      <trkpt lat="42.923437" lon="0.315099">
        <ele>1677.1</ele>
        <time>2014-12-29T11:28:48Z</time>
      </trkpt>
      <trkpt lat="42.923391" lon="0.315053">
        <ele>1680.7</ele>
        <time>2014-12-29T11:29:11Z</time>
      </trkpt>
      <trkpt lat="42.923329" lon="0.314938">
        <ele>1682.6</ele>
        <time>2014-12-29T11:29:31Z</time>
      </trkpt>
      <trkpt lat="42.923243" lon="0.314883">
        <ele>1683.8</ele>
        <time>2014-12-29T11:29:48Z</time>
      </trkpt>
      <trkpt lat="42.923146" lon="0.314881">
        <ele>1686.4</ele>
        <time>2014-12-29T11:30:06Z</time>
      </trkpt>
      <trkpt lat="42.923057" lon="0.314855">
        <ele>1689.5</ele>
        <time>2014-12-29T11:30:24Z</time>
      </trkpt>
      <trkpt lat="42.922966" lon="0.314817">
        <ele>1692.4</ele>
        <time>2014-12-29T11:30:44Z</time>
      </trkpt>
      <trkpt lat="42.922885" lon="0.314779">
        <ele>1695.0</ele>
        <time>2014-12-29T11:31:01Z</time>
      </trkpt>
      <trkpt lat="42.922796" lon="0.314713">
        <ele>1696.9</ele>
        <time>2014-12-29T11:31:22Z</time>
      </trkpt>
      <trkpt lat="42.922704" lon="0.314742">
        <ele>1700.1</ele>
        <time>2014-12-29T11:31:43Z</time>
      </trkpt>
      <trkpt lat="42.922590" lon="0.314706">
        <ele>1701.5</ele>
        <time>2014-12-29T11:32:02Z</time>
      </trkpt>
      <trkpt lat="42.922503" lon="0.314641">
        <ele>1702.4</ele>
        <time>2014-12-29T11:32:17Z</time>
      </trkpt>
      <trkpt lat="42.922413" lon="0.314568">
        <ele>1705.2</ele>
        <time>2014-12-29T11:32:35Z</time>
      </trkpt>
      <trkpt lat="42.922335" lon="0.314487">
        <ele>1706.5</ele>
        <time>2014-12-29T11:32:52Z</time>
      </trkpt>
      <trkpt lat="42.922258" lon="0.314402">
        <ele>1708.6</ele>
        <time>2014-12-29T11:33:09Z</time>
      </trkpt>
      <trkpt lat="42.922163" lon="0.314330">
        <ele>1712.3</ele>
        <time>2014-12-29T11:33:30Z</time>
      </trkpt>
      <trkpt lat="42.922113" lon="0.314222">
        <ele>1715.2</ele>
        <time>2014-12-29T11:33:49Z</time>
      </trkpt>
      <trkpt lat="42.922074" lon="0.314133">
        <ele>1717.7</ele>
        <time>2014-12-29T11:34:13Z</time>
      </trkpt>
      <trkpt lat="42.921993" lon="0.314148">
        <ele>1722.7</ele>
        <time>2014-12-29T11:34:39Z</time>
      </trkpt>
      <trkpt lat="42.921899" lon="0.314110">
        <ele>1725.6</ele>
        <time>2014-12-29T11:34:56Z</time>
      </trkpt>
      <trkpt lat="42.921784" lon="0.314106">
        <ele>1728.1</ele>
        <time>2014-12-29T11:35:14Z</time>
      </trkpt>
      <trkpt lat="42.921671" lon="0.314082">
        <ele>1729.6</ele>
        <time>2014-12-29T11:35:32Z</time>
      </trkpt>
      <trkpt lat="42.921567" lon="0.314046">
        <ele>1731.1</ele>
        <time>2014-12-29T11:35:47Z</time>
      </trkpt>
      <trkpt lat="42.921470" lon="0.314032">
        <ele>1733.3</ele>
        <time>2014-12-29T11:36:00Z</time>
      </trkpt>
      <trkpt lat="42.921370" lon="0.313996">
        <ele>1734.8</ele>
        <time>2014-12-29T11:36:14Z</time>
      </trkpt>
      <trkpt lat="42.921269" lon="0.313946">
        <ele>1737.6</ele>
        <time>2014-12-29T11:36:30Z</time>
      </trkpt>
      <trkpt lat="42.921169" lon="0.313901">
        <ele>1738.5</ele>
        <time>2014-12-29T11:36:44Z</time>
      </trkpt>
      <trkpt lat="42.921072" lon="0.313873">
        <ele>1739.6</ele>
        <time>2014-12-29T11:36:58Z</time>
      </trkpt>
      <trkpt lat="42.920971" lon="0.313835">
        <ele>1741.1</ele>
        <time>2014-12-29T11:37:12Z</time>
      </trkpt>
      <trkpt lat="42.920870" lon="0.313771">
        <ele>1742.7</ele>
        <time>2014-12-29T11:37:26Z</time>
      </trkpt>
      <trkpt lat="42.920760" lon="0.313744">
        <ele>1743.4</ele>
        <time>2014-12-29T11:37:40Z</time>
      </trkpt>
      <trkpt lat="42.920651" lon="0.313721">
        <ele>1745.3</ele>
        <time>2014-12-29T11:37:55Z</time>
      </trkpt>
      <trkpt lat="42.920557" lon="0.313689">
        <ele>1748.2</ele>
        <time>2014-12-29T11:38:15Z</time>
      </trkpt>
      <trkpt lat="42.920453" lon="0.313619">
        <ele>1748.7</ele>
        <time>2014-12-29T11:38:27Z</time>
      </trkpt>
      <trkpt lat="42.920359" lon="0.313599">
        <ele>1749.6</ele>
        <time>2014-12-29T11:38:39Z</time>
      </trkpt>
      <trkpt lat="42.920251" lon="0.313588">
        <ele>1750.7</ele>
        <time>2014-12-29T11:38:51Z</time>
      </trkpt>
      <trkpt lat="42.920149" lon="0.313579">
        <ele>1752.4</ele>
        <time>2014-12-29T11:39:06Z</time>
      </trkpt>
      <trkpt lat="42.920041" lon="0.313587">
        <ele>1754.7</ele>
        <time>2014-12-29T11:39:20Z</time>
      </trkpt>
      <trkpt lat="42.919933" lon="0.313596">
        <ele>1755.6</ele>
        <time>2014-12-29T11:39:32Z</time>
      </trkpt>
      <trkpt lat="42.919829" lon="0.313591">
        <ele>1756.4</ele>
        <time>2014-12-29T11:39:43Z</time>
      </trkpt>
      <trkpt lat="42.919731" lon="0.313585">
        <ele>1756.9</ele>
        <time>2014-12-29T11:39:54Z</time>
      </trkpt>
      <trkpt lat="42.919631" lon="0.313578">
        <ele>1756.6</ele>
        <time>2014-12-29T11:40:05Z</time>
      </trkpt>
      <trkpt lat="42.919519" lon="0.313572">
        <ele>1755.9</ele>
        <time>2014-12-29T11:40:17Z</time>
      </trkpt>
      <trkpt lat="42.919421" lon="0.313573">
        <ele>1756.8</ele>
        <time>2014-12-29T11:40:30Z</time>
      </trkpt>
      <trkpt lat="42.919312" lon="0.313556">
        <ele>1756.5</ele>
        <time>2014-12-29T11:40:44Z</time>
      </trkpt>
      <trkpt lat="42.919218" lon="0.313554">
        <ele>1756.8</ele>
        <time>2014-12-29T11:41:03Z</time>
      </trkpt>
      <trkpt lat="42.919229" lon="0.313578">
        <ele>1756.5</ele>
        <time>2014-12-29T11:44:17Z</time>
      </trkpt>
      <trkpt lat="42.919234" lon="0.313584">
        <ele>1756.7</ele>
        <time>2014-12-29T11:47:28Z</time>
      </trkpt>
      <trkpt lat="42.919184" lon="0.313552">
        <ele>1757.0</ele>
        <time>2014-12-29T11:49:59Z</time>
      </trkpt>
      <trkpt lat="42.919150" lon="0.313466">
        <ele>1756.5</ele>
        <time>2014-12-29T11:50:42Z</time>
      </trkpt>
      <trkpt lat="42.919081" lon="0.313367">
        <ele>1755.5</ele>
        <time>2014-12-29T11:50:52Z</time>
      </trkpt>
      <trkpt lat="42.919025" lon="0.313259">
        <ele>1754.1</ele>
        <time>2014-12-29T11:51:01Z</time>
      </trkpt>
      <trkpt lat="42.918975" lon="0.313151">
        <ele>1752.3</ele>
        <time>2014-12-29T11:51:10Z</time>
      </trkpt>
      <trkpt lat="42.918903" lon="0.313057">
        <ele>1749.9</ele>
        <time>2014-12-29T11:51:20Z</time>
      </trkpt>
      <trkpt lat="42.918830" lon="0.312963">
        <ele>1748.0</ele>
        <time>2014-12-29T11:51:29Z</time>
      </trkpt>
      <trkpt lat="42.918756" lon="0.312867">
        <ele>1745.1</ele>
        <time>2014-12-29T11:51:39Z</time>
      </trkpt>
      <trkpt lat="42.918680" lon="0.312776">
        <ele>1743.7</ele>
        <time>2014-12-29T11:51:47Z</time>
      </trkpt>
      <trkpt lat="42.918594" lon="0.312714">
        <ele>1742.3</ele>
        <time>2014-12-29T11:51:55Z</time>
      </trkpt>
      <trkpt lat="42.918511" lon="0.312661">
        <ele>1740.7</ele>
        <time>2014-12-29T11:52:03Z</time>
      </trkpt>
      <trkpt lat="42.918437" lon="0.312596">
        <ele>1739.1</ele>
        <time>2014-12-29T11:52:11Z</time>
      </trkpt>
      <trkpt lat="42.918374" lon="0.312569">
        <ele>1736.5</ele>
        <time>2014-12-29T11:52:36Z</time>
      </trkpt>
      <trkpt lat="42.918273" lon="0.312546">
        <ele>1735.4</ele>
        <time>2014-12-29T11:52:45Z</time>
      </trkpt>
      <trkpt lat="42.918178" lon="0.312568">
        <ele>1732.5</ele>
        <time>2014-12-29T11:52:54Z</time>
      </trkpt>
      <trkpt lat="42.918095" lon="0.312615">
        <ele>1730.5</ele>
        <time>2014-12-29T11:53:02Z</time>
      </trkpt>
      <trkpt lat="42.918005" lon="0.312661">
        <ele>1726.6</ele>
        <time>2014-12-29T11:53:13Z</time>
      </trkpt>
      <trkpt lat="42.917904" lon="0.312686">
        <ele>1722.5</ele>
        <time>2014-12-29T11:53:24Z</time>
      </trkpt>
      <trkpt lat="42.917805" lon="0.312706">
        <ele>1719.0</ele>
        <time>2014-12-29T11:53:33Z</time>
      </trkpt>
      <trkpt lat="42.917709" lon="0.312696">
        <ele>1715.3</ele>
        <time>2014-12-29T11:53:41Z</time>
      </trkpt>
      <trkpt lat="42.917607" lon="0.312703">
        <ele>1711.9</ele>
        <time>2014-12-29T11:53:49Z</time>
      </trkpt>
      <trkpt lat="42.917512" lon="0.312700">
        <ele>1708.4</ele>
        <time>2014-12-29T11:53:57Z</time>
      </trkpt>
      <trkpt lat="42.917419" lon="0.312674">
        <ele>1704.4</ele>
        <time>2014-12-29T11:54:05Z</time>
      </trkpt>
      <trkpt lat="42.917363" lon="0.312610">
        <ele>1698.3</ele>
        <time>2014-12-29T11:54:28Z</time>
      </trkpt>
      <trkpt lat="42.917283" lon="0.312572">
        <ele>1696.7</ele>
        <time>2014-12-29T11:54:41Z</time>
      </trkpt>
      <trkpt lat="42.917189" lon="0.312513">
        <ele>1694.1</ele>
        <time>2014-12-29T11:54:50Z</time>
      </trkpt>
      <trkpt lat="42.917094" lon="0.312468">
        <ele>1690.6</ele>
        <time>2014-12-29T11:54:58Z</time>
      </trkpt>
      <trkpt lat="42.917004" lon="0.312443">
        <ele>1687.6</ele>
        <time>2014-12-29T11:55:07Z</time>
      </trkpt>
      <trkpt lat="42.917003" lon="0.312396">
        <ele>1684.3</ele>
        <time>2014-12-29T11:56:53Z</time>
      </trkpt>
      <trkpt lat="42.916913" lon="0.312355">
        <ele>1683.2</ele>
        <time>2014-12-29T11:57:03Z</time>
      </trkpt>
      <trkpt lat="42.916816" lon="0.312289">
        <ele>1680.5</ele>
        <time>2014-12-29T11:57:13Z</time>
      </trkpt>
      <trkpt lat="42.916720" lon="0.312247">
        <ele>1678.4</ele>
        <time>2014-12-29T11:57:21Z</time>
      </trkpt>
      <trkpt lat="42.916640" lon="0.312199">
        <ele>1676.2</ele>
        <time>2014-12-29T11:57:28Z</time>
      </trkpt>
      <trkpt lat="42.916560" lon="0.312146">
        <ele>1674.1</ele>
        <time>2014-12-29T11:57:35Z</time>
      </trkpt>
      <trkpt lat="42.916478" lon="0.312124">
        <ele>1672.3</ele>
        <time>2014-12-29T11:57:43Z</time>
      </trkpt>
      <trkpt lat="42.916397" lon="0.312077">
        <ele>1669.9</ele>
        <time>2014-12-29T11:57:51Z</time>
      </trkpt>
      <trkpt lat="42.916322" lon="0.311989">
        <ele>1667.3</ele>
        <time>2014-12-29T11:58:00Z</time>
      </trkpt>
      <trkpt lat="42.916243" lon="0.311902">
        <ele>1664.9</ele>
        <time>2014-12-29T11:58:08Z</time>
      </trkpt>
      <trkpt lat="42.916166" lon="0.311818">
        <ele>1661.8</ele>
        <time>2014-12-29T11:58:16Z</time>
      </trkpt>
      <trkpt lat="42.916102" lon="0.311740">
        <ele>1659.8</ele>
        <time>2014-12-29T11:58:23Z</time>
      </trkpt>
      <trkpt lat="42.916011" lon="0.311695">
        <ele>1656.8</ele>
        <time>2014-12-29T11:58:32Z</time>
      </trkpt>
      <trkpt lat="42.915928" lon="0.311664">
        <ele>1653.9</ele>
        <time>2014-12-29T11:58:41Z</time>
      </trkpt>
      <trkpt lat="42.915843" lon="0.311619">
        <ele>1650.5</ele>
        <time>2014-12-29T11:58:56Z</time>
      </trkpt>
      <trkpt lat="42.915760" lon="0.311594">
        <ele>1648.4</ele>
        <time>2014-12-29T11:59:08Z</time>
      </trkpt>
      <trkpt lat="42.915672" lon="0.311571">
        <ele>1645.5</ele>
        <time>2014-12-29T11:59:20Z</time>
      </trkpt>
      <trkpt lat="42.915585" lon="0.311510">
        <ele>1642.2</ele>
        <time>2014-12-29T11:59:33Z</time>
      </trkpt>
      <trkpt lat="42.915502" lon="0.311446">
        <ele>1639.4</ele>
        <time>2014-12-29T11:59:44Z</time>
      </trkpt>
      <trkpt lat="42.915418" lon="0.311429">
        <ele>1637.0</ele>
        <time>2014-12-29T11:59:55Z</time>
      </trkpt>
      <trkpt lat="42.915351" lon="0.311374">
        <ele>1634.0</ele>
        <time>2014-12-29T12:00:09Z</time>
      </trkpt>
      <trkpt lat="42.915259" lon="0.311345">
        <ele>1632.2</ele>
        <time>2014-12-29T12:00:19Z</time>
      </trkpt>
      <trkpt lat="42.915165" lon="0.311297">
        <ele>1629.7</ele>
        <time>2014-12-29T12:00:32Z</time>
      </trkpt>
      <trkpt lat="42.915093" lon="0.311223">
        <ele>1627.3</ele>
        <time>2014-12-29T12:00:43Z</time>
      </trkpt>
      <trkpt lat="42.915001" lon="0.311210">
        <ele>1624.8</ele>
        <time>2014-12-29T12:00:55Z</time>
      </trkpt>
      <trkpt lat="42.914903" lon="0.311166">
        <ele>1622.5</ele>
        <time>2014-12-29T12:01:07Z</time>
      </trkpt>
      <trkpt lat="42.914916" lon="0.311176">
        <ele>1620.8</ele>
        <time>2014-12-29T12:02:53Z</time>
      </trkpt>
      <trkpt lat="42.914821" lon="0.311174">
        <ele>1620.3</ele>
        <time>2014-12-29T12:03:03Z</time>
      </trkpt>
      <trkpt lat="42.914735" lon="0.311192">
        <ele>1619.1</ele>
        <time>2014-12-29T12:03:11Z</time>
      </trkpt>
      <trkpt lat="42.914637" lon="0.311172">
        <ele>1617.9</ele>
        <time>2014-12-29T12:03:19Z</time>
      </trkpt>
      <trkpt lat="42.914540" lon="0.311123">
        <ele>1617.4</ele>
        <time>2014-12-29T12:03:27Z</time>
      </trkpt>
      <trkpt lat="42.914445" lon="0.311091">
        <ele>1617.2</ele>
        <time>2014-12-29T12:03:36Z</time>
      </trkpt>
      <trkpt lat="42.914351" lon="0.311056">
        <ele>1616.8</ele>
        <time>2014-12-29T12:03:45Z</time>
      </trkpt>
      <trkpt lat="42.914266" lon="0.311023">
        <ele>1616.3</ele>
        <time>2014-12-29T12:03:54Z</time>
      </trkpt>
      <trkpt lat="42.914176" lon="0.311000">
        <ele>1615.6</ele>
        <time>2014-12-29T12:04:03Z</time>
      </trkpt>
      <trkpt lat="42.914101" lon="0.310937">
        <ele>1614.7</ele>
        <time>2014-12-29T12:04:12Z</time>
      </trkpt>
      <trkpt lat="42.914063" lon="0.310842">
        <ele>1614.4</ele>
        <time>2014-12-29T12:04:20Z</time>
      </trkpt>
      <trkpt lat="42.914010" lon="0.310794">
        <ele>1613.8</ele>
        <time>2014-12-29T12:04:31Z</time>
      </trkpt>
      <trkpt lat="42.913915" lon="0.310782">
        <ele>1613.0</ele>
        <time>2014-12-29T12:04:41Z</time>
      </trkpt>
      <trkpt lat="42.913816" lon="0.310807">
        <ele>1612.1</ele>
        <time>2014-12-29T12:04:51Z</time>
      </trkpt>
      <trkpt lat="42.913723" lon="0.310730">
        <ele>1610.4</ele>
        <time>2014-12-29T12:04:59Z</time>
      </trkpt>
      <trkpt lat="42.913661" lon="0.310626">
        <ele>1608.5</ele>
        <time>2014-12-29T12:05:08Z</time>
      </trkpt>
      <trkpt lat="42.913588" lon="0.310548">
        <ele>1605.3</ele>
        <time>2014-12-29T12:05:21Z</time>
      </trkpt>
      <trkpt lat="42.913509" lon="0.310483">
        <ele>1603.7</ele>
        <time>2014-12-29T12:05:31Z</time>
      </trkpt>
      <trkpt lat="42.913429" lon="0.310401">
        <ele>1602.7</ele>
        <time>2014-12-29T12:05:40Z</time>
      </trkpt>
      <trkpt lat="42.913348" lon="0.310377">
        <ele>1602.3</ele>
        <time>2014-12-29T12:05:51Z</time>
      </trkpt>
      <trkpt lat="42.913268" lon="0.310392">
        <ele>1602.6</ele>
        <time>2014-12-29T12:06:02Z</time>
      </trkpt>
      <trkpt lat="42.913176" lon="0.310423">
        <ele>1602.5</ele>
        <time>2014-12-29T12:06:13Z</time>
      </trkpt>
      <trkpt lat="42.913092" lon="0.310394">
        <ele>1602.6</ele>
        <time>2014-12-29T12:06:22Z</time>
      </trkpt>
      <trkpt lat="42.913016" lon="0.310301">
        <ele>1603.5</ele>
        <time>2014-12-29T12:06:35Z</time>
      </trkpt>
      <trkpt lat="42.912928" lon="0.310217">
        <ele>1605.3</ele>
        <time>2014-12-29T12:06:50Z</time>
      </trkpt>
      <trkpt lat="42.912847" lon="0.310197">
        <ele>1605.1</ele>
        <time>2014-12-29T12:07:01Z</time>
      </trkpt>
      <trkpt lat="42.912760" lon="0.310165">
        <ele>1603.5</ele>
        <time>2014-12-29T12:07:11Z</time>
      </trkpt>
      <trkpt lat="42.912678" lon="0.310107">
        <ele>1601.7</ele>
        <time>2014-12-29T12:07:19Z</time>
      </trkpt>
      <trkpt lat="42.912602" lon="0.310027">
        <ele>1600.4</ele>
        <time>2014-12-29T12:07:29Z</time>
      </trkpt>
      <trkpt lat="42.912547" lon="0.309922">
        <ele>1600.1</ele>
        <time>2014-12-29T12:07:38Z</time>
      </trkpt>
      <trkpt lat="42.912468" lon="0.309860">
        <ele>1600.3</ele>
        <time>2014-12-29T12:07:48Z</time>
      </trkpt>
      <trkpt lat="42.912390" lon="0.309809">
        <ele>1599.8</ele>
        <time>2014-12-29T12:08:00Z</time>
      </trkpt>
      <trkpt lat="42.912321" lon="0.309744">
        <ele>1602.6</ele>
        <time>2014-12-29T12:08:18Z</time>
      </trkpt>
      <trkpt lat="42.912292" lon="0.309642">
        <ele>1605.9</ele>
        <time>2014-12-29T12:08:37Z</time>
      </trkpt>
      <trkpt lat="42.912283" lon="0.309532">
        <ele>1607.9</ele>
        <time>2014-12-29T12:08:53Z</time>
      </trkpt>
      <trkpt lat="42.912212" lon="0.309466">
        <ele>1611.2</ele>
        <time>2014-12-29T12:09:09Z</time>
      </trkpt>
      <trkpt lat="42.912125" lon="0.309448">
        <ele>1614.9</ele>
        <time>2014-12-29T12:09:27Z</time>
      </trkpt>
      <trkpt lat="42.912045" lon="0.309425">
        <ele>1617.1</ele>
        <time>2014-12-29T12:09:51Z</time>
      </trkpt>
      <trkpt lat="42.911967" lon="0.309381">
        <ele>1620.5</ele>
        <time>2014-12-29T12:10:09Z</time>
      </trkpt>
      <trkpt lat="42.911970" lon="0.309294">
        <ele>1622.9</ele>
        <time>2014-12-29T12:10:25Z</time>
      </trkpt>
      <trkpt lat="42.911969" lon="0.309177">
        <ele>1626.0</ele>
        <time>2014-12-29T12:10:41Z</time>
      </trkpt>
      <trkpt lat="42.911983" lon="0.309063">
        <ele>1628.2</ele>
        <time>2014-12-29T12:10:58Z</time>
      </trkpt>
      <trkpt lat="42.911990" lon="0.308946">
        <ele>1631.6</ele>
        <time>2014-12-29T12:11:15Z</time>
      </trkpt>
      <trkpt lat="42.911991" lon="0.308828">
        <ele>1634.7</ele>
        <time>2014-12-29T12:11:32Z</time>
      </trkpt>
      <trkpt lat="42.911912" lon="0.308770">
        <ele>1637.3</ele>
        <time>2014-12-29T12:11:47Z</time>
      </trkpt>
      <trkpt lat="42.911832" lon="0.308688">
        <ele>1639.4</ele>
        <time>2014-12-29T12:12:01Z</time>
      </trkpt>
      <trkpt lat="42.911758" lon="0.308613">
        <ele>1640.7</ele>
        <time>2014-12-29T12:12:13Z</time>
      </trkpt>
      <trkpt lat="42.911669" lon="0.308552">
        <ele>1641.4</ele>
        <time>2014-12-29T12:12:29Z</time>
      </trkpt>
      <trkpt lat="42.911585" lon="0.308468">
        <ele>1643.6</ele>
        <time>2014-12-29T12:12:46Z</time>
      </trkpt>
      <trkpt lat="42.911512" lon="0.308383">
        <ele>1646.7</ele>
        <time>2014-12-29T12:13:04Z</time>
      </trkpt>
      <trkpt lat="42.911431" lon="0.308274">
        <ele>1649.5</ele>
        <time>2014-12-29T12:13:19Z</time>
      </trkpt>
      <trkpt lat="42.911354" lon="0.308247">
        <ele>1652.3</ele>
        <time>2014-12-29T12:13:33Z</time>
      </trkpt>
      <trkpt lat="42.911292" lon="0.308193">
        <ele>1651.5</ele>
        <time>2014-12-29T12:13:51Z</time>
      </trkpt>
      <trkpt lat="42.911211" lon="0.308151">
        <ele>1651.4</ele>
        <time>2014-12-29T12:14:00Z</time>
      </trkpt>
      <trkpt lat="42.911126" lon="0.308095">
        <ele>1651.0</ele>
        <time>2014-12-29T12:14:09Z</time>
      </trkpt>
      <trkpt lat="42.911043" lon="0.308029">
        <ele>1650.7</ele>
        <time>2014-12-29T12:14:19Z</time>
      </trkpt>
      <trkpt lat="42.910961" lon="0.307969">
        <ele>1651.1</ele>
        <time>2014-12-29T12:14:29Z</time>
      </trkpt>
      <trkpt lat="42.910873" lon="0.307915">
        <ele>1651.7</ele>
        <time>2014-12-29T12:14:40Z</time>
      </trkpt>
      <trkpt lat="42.910788" lon="0.307850">
        <ele>1652.4</ele>
        <time>2014-12-29T12:14:50Z</time>
      </trkpt>
      <trkpt lat="42.910708" lon="0.307789">
        <ele>1652.3</ele>
        <time>2014-12-29T12:15:00Z</time>
      </trkpt>
      <trkpt lat="42.910620" lon="0.307725">
        <ele>1652.2</ele>
        <time>2014-12-29T12:15:10Z</time>
      </trkpt>
      <trkpt lat="42.910531" lon="0.307676">
        <ele>1651.8</ele>
        <time>2014-12-29T12:15:18Z</time>
      </trkpt>
      <trkpt lat="42.910446" lon="0.307652">
        <ele>1651.1</ele>
        <time>2014-12-29T12:15:28Z</time>
      </trkpt>
      <trkpt lat="42.910359" lon="0.307631">
        <ele>1650.7</ele>
        <time>2014-12-29T12:15:38Z</time>
      </trkpt>
      <trkpt lat="42.910266" lon="0.307597">
        <ele>1649.5</ele>
        <time>2014-12-29T12:15:49Z</time>
      </trkpt>
      <trkpt lat="42.910168" lon="0.307592">
        <ele>1648.5</ele>
        <time>2014-12-29T12:16:00Z</time>
      </trkpt>
      <trkpt lat="42.910068" lon="0.307570">
        <ele>1647.6</ele>
        <time>2014-12-29T12:16:09Z</time>
      </trkpt>
      <trkpt lat="42.909976" lon="0.307542">
        <ele>1646.0</ele>
        <time>2014-12-29T12:16:20Z</time>
      </trkpt>
      <trkpt lat="42.909857" lon="0.307575">
        <ele>1644.5</ele>
        <time>2014-12-29T12:17:26Z</time>
      </trkpt>
      <trkpt lat="42.909768" lon="0.307564">
        <ele>1643.4</ele>
        <time>2014-12-29T12:17:34Z</time>
      </trkpt>
      <trkpt lat="42.909668" lon="0.307535">
        <ele>1641.1</ele>
        <time>2014-12-29T12:17:44Z</time>
      </trkpt>
      <trkpt lat="42.909576" lon="0.307481">
        <ele>1638.4</ele>
        <time>2014-12-29T12:17:53Z</time>
      </trkpt>
      <trkpt lat="42.909476" lon="0.307476">
        <ele>1635.7</ele>
        <time>2014-12-29T12:18:02Z</time>
      </trkpt>
      <trkpt lat="42.909393" lon="0.307434">
        <ele>1632.7</ele>
        <time>2014-12-29T12:18:11Z</time>
      </trkpt>
      <trkpt lat="42.909294" lon="0.307424">
        <ele>1629.6</ele>
        <time>2014-12-29T12:18:21Z</time>
      </trkpt>
      <trkpt lat="42.909184" lon="0.307430">
        <ele>1627.0</ele>
        <time>2014-12-29T12:18:31Z</time>
      </trkpt>
      <trkpt lat="42.909086" lon="0.307407">
        <ele>1624.3</ele>
        <time>2014-12-29T12:18:41Z</time>
      </trkpt>
      <trkpt lat="42.908991" lon="0.307380">
        <ele>1621.5</ele>
        <time>2014-12-29T12:18:51Z</time>
      </trkpt>
      <trkpt lat="42.908898" lon="0.307376">
        <ele>1619.4</ele>
        <time>2014-12-29T12:19:00Z</time>
      </trkpt>
      <trkpt lat="42.908802" lon="0.307360">
        <ele>1618.1</ele>
        <time>2014-12-29T12:19:09Z</time>
      </trkpt>
      <trkpt lat="42.908717" lon="0.307356">
        <ele>1616.1</ele>
        <time>2014-12-29T12:19:19Z</time>
      </trkpt>
      <trkpt lat="42.908628" lon="0.307360">
        <ele>1614.9</ele>
        <time>2014-12-29T12:19:29Z</time>
      </trkpt>
      <trkpt lat="42.908549" lon="0.307339">
        <ele>1613.5</ele>
        <time>2014-12-29T12:19:38Z</time>
      </trkpt>
      <trkpt lat="42.908468" lon="0.307312">
        <ele>1611.9</ele>
        <time>2014-12-29T12:19:47Z</time>
      </trkpt>
      <trkpt lat="42.908371" lon="0.307283">
        <ele>1610.4</ele>
        <time>2014-12-29T12:19:57Z</time>
      </trkpt>
      <trkpt lat="42.908282" lon="0.307204">
        <ele>1610.1</ele>
        <time>2014-12-29T12:20:06Z</time>
      </trkpt>
      <trkpt lat="42.908183" lon="0.307170">
        <ele>1609.1</ele>
        <time>2014-12-29T12:20:15Z</time>
      </trkpt>
      <trkpt lat="42.908096" lon="0.307139">
        <ele>1608.2</ele>
        <time>2014-12-29T12:20:24Z</time>
      </trkpt>
      <trkpt lat="42.908009" lon="0.307089">
        <ele>1607.5</ele>
        <time>2014-12-29T12:20:33Z</time>
      </trkpt>
      <trkpt lat="42.907929" lon="0.307043">
        <ele>1607.3</ele>
        <time>2014-12-29T12:20:43Z</time>
      </trkpt>
      <trkpt lat="42.907848" lon="0.307005">
        <ele>1608.0</ele>
        <time>2014-12-29T12:20:53Z</time>
      </trkpt>
      <trkpt lat="42.907742" lon="0.306991">
        <ele>1609.2</ele>
        <time>2014-12-29T12:21:04Z</time>
      </trkpt>
      <trkpt lat="42.907646" lon="0.306972">
        <ele>1609.6</ele>
        <time>2014-12-29T12:21:14Z</time>
      </trkpt>
      <trkpt lat="42.907555" lon="0.306945">
        <ele>1610.4</ele>
        <time>2014-12-29T12:21:24Z</time>
      </trkpt>
      <trkpt lat="42.907463" lon="0.306918">
        <ele>1610.9</ele>
        <time>2014-12-29T12:21:33Z</time>
      </trkpt>
      <trkpt lat="42.907365" lon="0.306900">
        <ele>1611.2</ele>
        <time>2014-12-29T12:21:42Z</time>
      </trkpt>
      <trkpt lat="42.907277" lon="0.306878">
        <ele>1611.9</ele>
        <time>2014-12-29T12:21:51Z</time>
      </trkpt>
      <trkpt lat="42.907185" lon="0.306841">
        <ele>1613.5</ele>
        <time>2014-12-29T12:22:02Z</time>
      </trkpt>
      <trkpt lat="42.907105" lon="0.306779">
        <ele>1615.3</ele>
        <time>2014-12-29T12:22:14Z</time>
      </trkpt>
      <trkpt lat="42.907007" lon="0.306761">
        <ele>1615.7</ele>
        <time>2014-12-29T12:22:25Z</time>
      </trkpt>
      <trkpt lat="42.906914" lon="0.306743">
        <ele>1615.1</ele>
        <time>2014-12-29T12:22:34Z</time>
      </trkpt>
      <trkpt lat="42.906833" lon="0.306703">
        <ele>1614.5</ele>
        <time>2014-12-29T12:22:42Z</time>
      </trkpt>
      <trkpt lat="42.906756" lon="0.306654">
        <ele>1614.8</ele>
        <time>2014-12-29T12:22:52Z</time>
      </trkpt>
      <trkpt lat="42.906700" lon="0.306547">
        <ele>1616.4</ele>
        <time>2014-12-29T12:23:05Z</time>
      </trkpt>
      <trkpt lat="42.906662" lon="0.306419">
        <ele>1616.9</ele>
        <time>2014-12-29T12:23:16Z</time>
      </trkpt>
      <trkpt lat="42.906586" lon="0.306333">
        <ele>1616.1</ele>
        <time>2014-12-29T12:23:26Z</time>
      </trkpt>
      <trkpt lat="42.906509" lon="0.306260">
        <ele>1614.5</ele>
        <time>2014-12-29T12:23:39Z</time>
      </trkpt>
      <trkpt lat="42.906409" lon="0.306266">
        <ele>1612.5</ele>
        <time>2014-12-29T12:23:55Z</time>
      </trkpt>
      <trkpt lat="42.906359" lon="0.306180">
        <ele>1610.6</ele>
        <time>2014-12-29T12:24:13Z</time>
      </trkpt>
      <trkpt lat="42.906279" lon="0.306125">
        <ele>1605.8</ele>
        <time>2014-12-29T12:24:45Z</time>
      </trkpt>
      <trkpt lat="42.906193" lon="0.306140">
        <ele>1603.9</ele>
        <time>2014-12-29T12:25:06Z</time>
      </trkpt>
      <trkpt lat="42.906128" lon="0.306236">
        <ele>1602.4</ele>
        <time>2014-12-29T12:25:24Z</time>
      </trkpt>
      <trkpt lat="42.906038" lon="0.306254">
        <ele>1600.9</ele>
        <time>2014-12-29T12:25:33Z</time>
      </trkpt>
      <trkpt lat="42.905938" lon="0.306266">
        <ele>1599.4</ele>
        <time>2014-12-29T12:25:41Z</time>
      </trkpt>
      <trkpt lat="42.905851" lon="0.306230">
        <ele>1598.2</ele>
        <time>2014-12-29T12:25:57Z</time>
      </trkpt>
      <trkpt lat="42.905785" lon="0.306127">
        <ele>1597.2</ele>
        <time>2014-12-29T12:26:09Z</time>
      </trkpt>
      <trkpt lat="42.905755" lon="0.306024">
        <ele>1596.1</ele>
        <time>2014-12-29T12:26:17Z</time>
      </trkpt>
      <trkpt lat="42.905730" lon="0.305911">
        <ele>1595.5</ele>
        <time>2014-12-29T12:26:28Z</time>
      </trkpt>
      <trkpt lat="42.905685" lon="0.305818">
        <ele>1596.1</ele>
        <time>2014-12-29T12:26:40Z</time>
      </trkpt>
      <trkpt lat="42.905604" lon="0.305747">
        <ele>1592.9</ele>
        <time>2014-12-29T12:27:15Z</time>
      </trkpt>
      <trkpt lat="42.905506" lon="0.305748">
        <ele>1591.2</ele>
        <time>2014-12-29T12:27:28Z</time>
      </trkpt>
      <trkpt lat="42.905433" lon="0.305664">
        <ele>1586.6</ele>
        <time>2014-12-29T12:27:42Z</time>
      </trkpt>
      <trkpt lat="42.905358" lon="0.305572">
        <ele>1580.9</ele>
        <time>2014-12-29T12:27:57Z</time>
      </trkpt>
      <trkpt lat="42.905265" lon="0.305516">
        <ele>1577.6</ele>
        <time>2014-12-29T12:28:12Z</time>
      </trkpt>
      <trkpt lat="42.905172" lon="0.305482">
        <ele>1575.8</ele>
        <time>2014-12-29T12:28:22Z</time>
      </trkpt>
      <trkpt lat="42.905076" lon="0.305542">
        <ele>1574.3</ele>
        <time>2014-12-29T12:28:32Z</time>
      </trkpt>
      <trkpt lat="42.904985" lon="0.305538">
        <ele>1572.8</ele>
        <time>2014-12-29T12:28:41Z</time>
      </trkpt>
      <trkpt lat="42.904905" lon="0.305495">
        <ele>1571.3</ele>
        <time>2014-12-29T12:28:50Z</time>
      </trkpt>
      <trkpt lat="42.904823" lon="0.305453">
        <ele>1567.5</ele>
        <time>2014-12-29T12:29:02Z</time>
      </trkpt>
      <trkpt lat="42.904734" lon="0.305401">
        <ele>1564.1</ele>
        <time>2014-12-29T12:29:18Z</time>
      </trkpt>
      <trkpt lat="42.904644" lon="0.305359">
        <ele>1562.3</ele>
        <time>2014-12-29T12:29:27Z</time>
      </trkpt>
      <trkpt lat="42.904553" lon="0.305350">
        <ele>1560.1</ele>
        <time>2014-12-29T12:29:36Z</time>
      </trkpt>
      <trkpt lat="42.904478" lon="0.305278">
        <ele>1558.1</ele>
        <time>2014-12-29T12:29:45Z</time>
      </trkpt>
      <trkpt lat="42.904420" lon="0.305216">
        <ele>1556.4</ele>
        <time>2014-12-29T12:29:55Z</time>
      </trkpt>
      <trkpt lat="42.904366" lon="0.305146">
        <ele>1553.8</ele>
        <time>2014-12-29T12:30:11Z</time>
      </trkpt>
      <trkpt lat="42.904274" lon="0.305110">
        <ele>1550.0</ele>
        <time>2014-12-29T12:30:24Z</time>
      </trkpt>
      <trkpt lat="42.904174" lon="0.305080">
        <ele>1547.4</ele>
        <time>2014-12-29T12:30:33Z</time>
      </trkpt>
      <trkpt lat="42.904088" lon="0.305027">
        <ele>1545.6</ele>
        <time>2014-12-29T12:30:41Z</time>
      </trkpt>
      <trkpt lat="42.903991" lon="0.305015">
        <ele>1543.8</ele>
        <time>2014-12-29T12:30:50Z</time>
      </trkpt>
      <trkpt lat="42.903893" lon="0.305013">
        <ele>1542.3</ele>
        <time>2014-12-29T12:31:00Z</time>
      </trkpt>
      <trkpt lat="42.903796" lon="0.305072">
        <ele>1540.7</ele>
        <time>2014-12-29T12:31:30Z</time>
      </trkpt>
      <trkpt lat="42.903726" lon="0.305049">
        <ele>1540.2</ele>
        <time>2014-12-29T12:31:46Z</time>
      </trkpt>
      <trkpt lat="42.903636" lon="0.305069">
        <ele>1538.8</ele>
        <time>2014-12-29T12:31:56Z</time>
      </trkpt>
      <trkpt lat="42.903542" lon="0.305094">
        <ele>1537.9</ele>
        <time>2014-12-29T12:32:05Z</time>
      </trkpt>
      <trkpt lat="42.903451" lon="0.305096">
        <ele>1536.5</ele>
        <time>2014-12-29T12:32:14Z</time>
      </trkpt>
      <trkpt lat="42.903367" lon="0.305117">
        <ele>1535.3</ele>
        <time>2014-12-29T12:32:22Z</time>
      </trkpt>
      <trkpt lat="42.903271" lon="0.305130">
        <ele>1534.5</ele>
        <time>2014-12-29T12:32:31Z</time>
      </trkpt>
      <trkpt lat="42.903181" lon="0.305142">
        <ele>1533.7</ele>
        <time>2014-12-29T12:32:40Z</time>
      </trkpt>
      <trkpt lat="42.903111" lon="0.305162">
        <ele>1532.9</ele>
        <time>2014-12-29T12:32:49Z</time>
      </trkpt>
      <trkpt lat="42.903018" lon="0.305161">
        <ele>1532.1</ele>
        <time>2014-12-29T12:32:58Z</time>
      </trkpt>
      <trkpt lat="42.902936" lon="0.305125">
        <ele>1531.3</ele>
        <time>2014-12-29T12:33:09Z</time>
      </trkpt>
      <trkpt lat="42.902846" lon="0.305105">
        <ele>1532.1</ele>
        <time>2014-12-29T12:33:22Z</time>
      </trkpt>
      <trkpt lat="42.902766" lon="0.305114">
        <ele>1532.5</ele>
        <time>2014-12-29T12:33:37Z</time>
      </trkpt>
      <trkpt lat="42.902669" lon="0.305124">
        <ele>1532.9</ele>
        <time>2014-12-29T12:33:49Z</time>
      </trkpt>
      <trkpt lat="42.902582" lon="0.305166">
        <ele>1534.1</ele>
        <time>2014-12-29T12:34:02Z</time>
      </trkpt>
      <trkpt lat="42.902486" lon="0.305196">
        <ele>1535.0</ele>
        <time>2014-12-29T12:34:15Z</time>
      </trkpt>
      <trkpt lat="42.902385" lon="0.305254">
        <ele>1536.6</ele>
        <time>2014-12-29T12:34:26Z</time>
      </trkpt>
      <trkpt lat="42.902285" lon="0.305274">
        <ele>1537.7</ele>
        <time>2014-12-29T12:34:38Z</time>
      </trkpt>
      <trkpt lat="42.902209" lon="0.305350">
        <ele>1538.6</ele>
        <time>2014-12-29T12:34:49Z</time>
      </trkpt>
      <trkpt lat="42.902130" lon="0.305424">
        <ele>1539.7</ele>
        <time>2014-12-29T12:35:02Z</time>
      </trkpt>
      <trkpt lat="42.902039" lon="0.305472">
        <ele>1540.4</ele>
        <time>2014-12-29T12:35:14Z</time>
      </trkpt>
      <trkpt lat="42.901928" lon="0.305537">
        <ele>1540.2</ele>
        <time>2014-12-29T12:35:27Z</time>
      </trkpt>
      <trkpt lat="42.901827" lon="0.305613">
        <ele>1540.2</ele>
        <time>2014-12-29T12:35:38Z</time>
      </trkpt>
      <trkpt lat="42.901736" lon="0.305683">
        <ele>1540.0</ele>
        <time>2014-12-29T12:35:48Z</time>
      </trkpt>
      <trkpt lat="42.901649" lon="0.305742">
        <ele>1540.3</ele>
        <time>2014-12-29T12:35:59Z</time>
      </trkpt>
      <trkpt lat="42.901575" lon="0.305795">
        <ele>1540.5</ele>
        <time>2014-12-29T12:36:09Z</time>
      </trkpt>
      <trkpt lat="42.901483" lon="0.305827">
        <ele>1540.6</ele>
        <time>2014-12-29T12:36:18Z</time>
      </trkpt>
      <trkpt lat="42.901393" lon="0.305858">
        <ele>1539.8</ele>
        <time>2014-12-29T12:36:27Z</time>
      </trkpt>
      <trkpt lat="42.901304" lon="0.305861">
        <ele>1539.0</ele>
        <time>2014-12-29T12:36:49Z</time>
      </trkpt>
      <trkpt lat="42.901211" lon="0.305852">
        <ele>1539.1</ele>
        <time>2014-12-29T12:37:02Z</time>
      </trkpt>
      <trkpt lat="42.901116" lon="0.305840">
        <ele>1540.6</ele>
        <time>2014-12-29T12:37:15Z</time>
      </trkpt>
      <trkpt lat="42.901016" lon="0.305833">
        <ele>1542.7</ele>
        <time>2014-12-29T12:37:29Z</time>
      </trkpt>
      <trkpt lat="42.900912" lon="0.305793">
        <ele>1544.9</ele>
        <time>2014-12-29T12:37:43Z</time>
      </trkpt>
      <trkpt lat="42.900820" lon="0.305832">
        <ele>1546.5</ele>
        <time>2014-12-29T12:37:56Z</time>
      </trkpt>
      <trkpt lat="42.900727" lon="0.305811">
        <ele>1548.3</ele>
        <time>2014-12-29T12:38:09Z</time>
      </trkpt>
      <trkpt lat="42.900509" lon="0.305858">
        <ele>1558.8</ele>
        <time>2014-12-29T13:22:06Z</time>
      </trkpt>
      <trkpt lat="42.900430" lon="0.305795">
        <ele>1559.6</ele>
        <time>2014-12-29T13:31:44Z</time>
      </trkpt>
      <trkpt lat="42.900347" lon="0.305744">
        <ele>1561.1</ele>
        <time>2014-12-29T13:31:59Z</time>
      </trkpt>
      <trkpt lat="42.900252" lon="0.305693">
        <ele>1562.5</ele>
        <time>2014-12-29T13:32:13Z</time>
      </trkpt>
      <trkpt lat="42.900150" lon="0.305712">
        <ele>1564.4</ele>
        <time>2014-12-29T13:32:27Z</time>
      </trkpt>
      <trkpt lat="42.900084" lon="0.305616">
        <ele>1566.8</ele>
        <time>2014-12-29T13:32:47Z</time>
      </trkpt>
      <trkpt lat="42.900031" lon="0.305488">
        <ele>1568.8</ele>
        <time>2014-12-29T13:33:02Z</time>
      </trkpt>
      <trkpt lat="42.899951" lon="0.305358">
        <ele>1570.5</ele>
        <time>2014-12-29T13:33:15Z</time>
      </trkpt>
      <trkpt lat="42.899873" lon="0.305284">
        <ele>1572.4</ele>
        <time>2014-12-29T13:33:28Z</time>
      </trkpt>
      <trkpt lat="42.899788" lon="0.305248">
        <ele>1575.2</ele>
        <time>2014-12-29T13:33:45Z</time>
      </trkpt>
      <trkpt lat="42.899699" lon="0.305164">
        <ele>1576.5</ele>
        <time>2014-12-29T13:33:59Z</time>
      </trkpt>
      <trkpt lat="42.899641" lon="0.305068">
        <ele>1578.4</ele>
        <time>2014-12-29T13:34:13Z</time>
      </trkpt>
      <trkpt lat="42.899572" lon="0.305006">
        <ele>1581.4</ele>
        <time>2014-12-29T13:34:45Z</time>
      </trkpt>
      <trkpt lat="42.899536" lon="0.304961">
        <ele>1581.2</ele>
        <time>2014-12-29T13:36:10Z</time>
      </trkpt>
      <trkpt lat="42.899452" lon="0.304879">
        <ele>1584.2</ele>
        <time>2014-12-29T13:36:30Z</time>
      </trkpt>
      <trkpt lat="42.899361" lon="0.304881">
        <ele>1587.3</ele>
        <time>2014-12-29T13:36:51Z</time>
      </trkpt>
      <trkpt lat="42.899285" lon="0.304792">
        <ele>1589.6</ele>
        <time>2014-12-29T13:37:05Z</time>
      </trkpt>
      <trkpt lat="42.899218" lon="0.304709">
        <ele>1591.1</ele>
        <time>2014-12-29T13:37:21Z</time>
      </trkpt>
      <trkpt lat="42.899151" lon="0.304628">
        <ele>1593.1</ele>
        <time>2014-12-29T13:37:37Z</time>
      </trkpt>
      <trkpt lat="42.899078" lon="0.304578">
        <ele>1594.8</ele>
        <time>2014-12-29T13:37:50Z</time>
      </trkpt>
      <trkpt lat="42.899018" lon="0.304491">
        <ele>1596.0</ele>
        <time>2014-12-29T13:38:03Z</time>
      </trkpt>
      <trkpt lat="42.898945" lon="0.304436">
        <ele>1597.3</ele>
        <time>2014-12-29T13:38:17Z</time>
      </trkpt>
      <trkpt lat="42.898888" lon="0.304356">
        <ele>1598.8</ele>
        <time>2014-12-29T13:38:32Z</time>
      </trkpt>
      <trkpt lat="42.898794" lon="0.304300">
        <ele>1600.7</ele>
        <time>2014-12-29T13:38:47Z</time>
      </trkpt>
      <trkpt lat="42.898722" lon="0.304262">
        <ele>1603.1</ele>
        <time>2014-12-29T13:39:07Z</time>
      </trkpt>
      <trkpt lat="42.898672" lon="0.304145">
        <ele>1605.4</ele>
        <time>2014-12-29T13:39:25Z</time>
      </trkpt>
      <trkpt lat="42.898593" lon="0.304072">
        <ele>1606.4</ele>
        <time>2014-12-29T13:39:41Z</time>
      </trkpt>
      <trkpt lat="42.898518" lon="0.304008">
        <ele>1607.7</ele>
        <time>2014-12-29T13:39:57Z</time>
      </trkpt>
      <trkpt lat="42.898446" lon="0.303927">
        <ele>1609.2</ele>
        <time>2014-12-29T13:40:13Z</time>
      </trkpt>
      <trkpt lat="42.898383" lon="0.303833">
        <ele>1610.8</ele>
        <time>2014-12-29T13:40:31Z</time>
      </trkpt>
      <trkpt lat="42.898322" lon="0.303758">
        <ele>1612.8</ele>
        <time>2014-12-29T13:40:47Z</time>
      </trkpt>
      <trkpt lat="42.898250" lon="0.303695">
        <ele>1614.4</ele>
        <time>2014-12-29T13:41:03Z</time>
      </trkpt>
      <trkpt lat="42.898202" lon="0.303608">
        <ele>1615.7</ele>
        <time>2014-12-29T13:41:22Z</time>
      </trkpt>
      <trkpt lat="42.898112" lon="0.303539">
        <ele>1617.7</ele>
        <time>2014-12-29T13:41:41Z</time>
      </trkpt>
      <trkpt lat="42.898041" lon="0.303464">
        <ele>1619.0</ele>
        <time>2014-12-29T13:42:03Z</time>
      </trkpt>
      <trkpt lat="42.897987" lon="0.303387">
        <ele>1620.8</ele>
        <time>2014-12-29T13:42:34Z</time>
      </trkpt>
      <trkpt lat="42.897925" lon="0.303302">
        <ele>1622.7</ele>
        <time>2014-12-29T13:42:56Z</time>
      </trkpt>
      <trkpt lat="42.897855" lon="0.303220">
        <ele>1624.7</ele>
        <time>2014-12-29T13:43:13Z</time>
      </trkpt>
      <trkpt lat="42.897787" lon="0.303145">
        <ele>1626.3</ele>
        <time>2014-12-29T13:43:30Z</time>
      </trkpt>
      <trkpt lat="42.897717" lon="0.303079">
        <ele>1627.6</ele>
        <time>2014-12-29T13:43:49Z</time>
      </trkpt>
      <trkpt lat="42.897622" lon="0.303030">
        <ele>1629.7</ele>
        <time>2014-12-29T13:44:13Z</time>
      </trkpt>
      <trkpt lat="42.897521" lon="0.302980">
        <ele>1632.2</ele>
        <time>2014-12-29T13:44:35Z</time>
      </trkpt>
      <trkpt lat="42.897419" lon="0.302967">
        <ele>1635.2</ele>
        <time>2014-12-29T13:44:58Z</time>
      </trkpt>
      <trkpt lat="42.897317" lon="0.302957">
        <ele>1638.8</ele>
        <time>2014-12-29T13:45:25Z</time>
      </trkpt>
      <trkpt lat="42.897216" lon="0.302940">
        <ele>1643.0</ele>
        <time>2014-12-29T13:45:49Z</time>
      </trkpt>
      <trkpt lat="42.897124" lon="0.302899">
        <ele>1646.7</ele>
        <time>2014-12-29T13:46:08Z</time>
      </trkpt>
      <trkpt lat="42.897033" lon="0.302920">
        <ele>1649.7</ele>
        <time>2014-12-29T13:46:28Z</time>
      </trkpt>
      <trkpt lat="42.896952" lon="0.302930">
        <ele>1652.7</ele>
        <time>2014-12-29T13:46:51Z</time>
      </trkpt>
      <trkpt lat="42.896878" lon="0.302963">
        <ele>1655.9</ele>
        <time>2014-12-29T13:47:12Z</time>
      </trkpt>
      <trkpt lat="42.896810" lon="0.303037">
        <ele>1658.7</ele>
        <time>2014-12-29T13:47:30Z</time>
      </trkpt>
      <trkpt lat="42.896743" lon="0.303116">
        <ele>1661.3</ele>
        <time>2014-12-29T13:47:49Z</time>
      </trkpt>
      <trkpt lat="42.896687" lon="0.303200">
        <ele>1664.1</ele>
        <time>2014-12-29T13:48:13Z</time>
      </trkpt>
      <trkpt lat="42.896609" lon="0.303259">
        <ele>1667.7</ele>
        <time>2014-12-29T13:48:34Z</time>
      </trkpt>
      <trkpt lat="42.896530" lon="0.303339">
        <ele>1670.5</ele>
        <time>2014-12-29T13:48:51Z</time>
      </trkpt>
      <trkpt lat="42.896418" lon="0.303355">
        <ele>1671.9</ele>
        <time>2014-12-29T13:49:06Z</time>
      </trkpt>
      <trkpt lat="42.896323" lon="0.303303">
        <ele>1672.5</ele>
        <time>2014-12-29T13:49:18Z</time>
      </trkpt>
      <trkpt lat="42.896275" lon="0.303294">
        <ele>1675.9</ele>
        <time>2014-12-29T13:50:05Z</time>
      </trkpt>
      <trkpt lat="42.896189" lon="0.303205">
        <ele>1674.5</ele>
        <time>2014-12-29T13:50:16Z</time>
      </trkpt>
      <trkpt lat="42.896116" lon="0.303118">
        <ele>1674.3</ele>
        <time>2014-12-29T13:50:25Z</time>
      </trkpt>
      <trkpt lat="42.896052" lon="0.303017">
        <ele>1674.1</ele>
        <time>2014-12-29T13:50:34Z</time>
      </trkpt>
      <trkpt lat="42.895971" lon="0.302929">
        <ele>1674.2</ele>
        <time>2014-12-29T13:50:45Z</time>
      </trkpt>
      <trkpt lat="42.895911" lon="0.302808">
        <ele>1674.9</ele>
        <time>2014-12-29T13:50:56Z</time>
      </trkpt>
      <trkpt lat="42.895885" lon="0.302677">
        <ele>1675.5</ele>
        <time>2014-12-29T13:51:06Z</time>
      </trkpt>
      <trkpt lat="42.895875" lon="0.302533">
        <ele>1675.7</ele>
        <time>2014-12-29T13:51:17Z</time>
      </trkpt>
      <trkpt lat="42.895864" lon="0.302407">
        <ele>1675.2</ele>
        <time>2014-12-29T13:51:27Z</time>
      </trkpt>
      <trkpt lat="42.895863" lon="0.302397">
        <ele>1674.0</ele>
        <time>2014-12-29T13:51:55Z</time>
      </trkpt>
      <trkpt lat="42.895843" lon="0.302234">
        <ele>1676.6</ele>
        <time>2014-12-29T13:52:07Z</time>
      </trkpt>
      <trkpt lat="42.895818" lon="0.302112">
        <ele>1677.0</ele>
        <time>2014-12-29T13:52:17Z</time>
      </trkpt>
      <trkpt lat="42.895777" lon="0.301974">
        <ele>1679.3</ele>
        <time>2014-12-29T13:52:29Z</time>
      </trkpt>
      <trkpt lat="42.895752" lon="0.301846">
        <ele>1681.1</ele>
        <time>2014-12-29T13:52:41Z</time>
      </trkpt>
      <trkpt lat="42.895710" lon="0.301723">
        <ele>1682.4</ele>
        <time>2014-12-29T13:52:54Z</time>
      </trkpt>
      <trkpt lat="42.895686" lon="0.301573">
        <ele>1683.2</ele>
        <time>2014-12-29T13:53:07Z</time>
      </trkpt>
      <trkpt lat="42.895662" lon="0.301428">
        <ele>1684.9</ele>
        <time>2014-12-29T13:53:21Z</time>
      </trkpt>
      <trkpt lat="42.895647" lon="0.301286">
        <ele>1686.7</ele>
        <time>2014-12-29T13:53:33Z</time>
      </trkpt>
      <trkpt lat="42.895625" lon="0.301138">
        <ele>1688.3</ele>
        <time>2014-12-29T13:53:45Z</time>
      </trkpt>
      <trkpt lat="42.895634" lon="0.301010">
        <ele>1689.1</ele>
        <time>2014-12-29T13:53:57Z</time>
      </trkpt>
      <trkpt lat="42.895649" lon="0.300885">
        <ele>1690.4</ele>
        <time>2014-12-29T13:54:10Z</time>
      </trkpt>
      <trkpt lat="42.895675" lon="0.300752">
        <ele>1692.1</ele>
        <time>2014-12-29T13:54:22Z</time>
      </trkpt>
      <trkpt lat="42.895685" lon="0.300619">
        <ele>1692.6</ele>
        <time>2014-12-29T13:54:33Z</time>
      </trkpt>
      <trkpt lat="42.895690" lon="0.300493">
        <ele>1693.2</ele>
        <time>2014-12-29T13:54:45Z</time>
      </trkpt>
      <trkpt lat="42.895699" lon="0.300357">
        <ele>1695.2</ele>
        <time>2014-12-29T13:54:59Z</time>
      </trkpt>
      <trkpt lat="42.895682" lon="0.300225">
        <ele>1696.2</ele>
        <time>2014-12-29T13:55:10Z</time>
      </trkpt>
      <trkpt lat="42.895692" lon="0.300113">
        <ele>1696.9</ele>
        <time>2014-12-29T13:55:20Z</time>
      </trkpt>
      <trkpt lat="42.895693" lon="0.299987">
        <ele>1698.4</ele>
        <time>2014-12-29T13:55:34Z</time>
      </trkpt>
      <trkpt lat="42.895667" lon="0.299846">
        <ele>1698.9</ele>
        <time>2014-12-29T13:55:46Z</time>
      </trkpt>
      <trkpt lat="42.895611" lon="0.299744">
        <ele>1699.9</ele>
        <time>2014-12-29T13:56:01Z</time>
      </trkpt>
      <trkpt lat="42.895610" lon="0.299763">
        <ele>1700.8</ele>
        <time>2014-12-29T13:57:00Z</time>
      </trkpt>
      <trkpt lat="42.895641" lon="0.299689">
        <ele>1700.5</ele>
        <time>2014-12-29T13:57:25Z</time>
      </trkpt>
      <trkpt lat="42.895710" lon="0.299582">
        <ele>1701.0</ele>
        <time>2014-12-29T13:57:34Z</time>
      </trkpt>
      <trkpt lat="42.895765" lon="0.299473">
        <ele>1700.4</ele>
        <time>2014-12-29T13:57:42Z</time>
      </trkpt>
      <trkpt lat="42.895795" lon="0.299347">
        <ele>1698.5</ele>
        <time>2014-12-29T13:57:52Z</time>
      </trkpt>
      <trkpt lat="42.895834" lon="0.299213">
        <ele>1697.8</ele>
        <time>2014-12-29T13:58:02Z</time>
      </trkpt>
      <trkpt lat="42.895896" lon="0.299114">
        <ele>1696.6</ele>
        <time>2014-12-29T13:58:11Z</time>
      </trkpt>
      <trkpt lat="42.895959" lon="0.298998">
        <ele>1696.1</ele>
        <time>2014-12-29T13:58:21Z</time>
      </trkpt>
      <trkpt lat="42.896002" lon="0.298879">
        <ele>1695.2</ele>
        <time>2014-12-29T13:58:30Z</time>
      </trkpt>
      <trkpt lat="42.896055" lon="0.298779">
        <ele>1694.8</ele>
        <time>2014-12-29T13:58:39Z</time>
      </trkpt>
      <trkpt lat="42.896105" lon="0.298677">
        <ele>1694.5</ele>
        <time>2014-12-29T13:58:49Z</time>
      </trkpt>
      <trkpt lat="42.896142" lon="0.298558">
        <ele>1693.5</ele>
        <time>2014-12-29T13:58:59Z</time>
      </trkpt>
      <trkpt lat="42.896184" lon="0.298437">
        <ele>1693.2</ele>
        <time>2014-12-29T13:59:09Z</time>
      </trkpt>
      <trkpt lat="42.896249" lon="0.298339">
        <ele>1693.0</ele>
        <time>2014-12-29T13:59:21Z</time>
      </trkpt>
      <trkpt lat="42.896290" lon="0.298213">
        <ele>1692.9</ele>
        <time>2014-12-29T13:59:29Z</time>
      </trkpt>
      <trkpt lat="42.896352" lon="0.298120">
        <ele>1692.7</ele>
        <time>2014-12-29T13:59:38Z</time>
      </trkpt>
      <trkpt lat="42.896416" lon="0.297996">
        <ele>1691.9</ele>
        <time>2014-12-29T13:59:49Z</time>
      </trkpt>
      <trkpt lat="42.896452" lon="0.297882">
        <ele>1691.3</ele>
        <time>2014-12-29T13:59:59Z</time>
      </trkpt>
      <trkpt lat="42.896498" lon="0.297771">
        <ele>1690.0</ele>
        <time>2014-12-29T14:00:09Z</time>
      </trkpt>
      <trkpt lat="42.896547" lon="0.297665">
        <ele>1689.3</ele>
        <time>2014-12-29T14:00:18Z</time>
      </trkpt>
      <trkpt lat="42.896595" lon="0.297552">
        <ele>1689.0</ele>
        <time>2014-12-29T14:00:27Z</time>
      </trkpt>
      <trkpt lat="42.896662" lon="0.297464">
        <ele>1688.0</ele>
        <time>2014-12-29T14:00:36Z</time>
      </trkpt>
      <trkpt lat="42.896735" lon="0.297387">
        <ele>1686.9</ele>
        <time>2014-12-29T14:00:44Z</time>
      </trkpt>
      <trkpt lat="42.896825" lon="0.297290">
        <ele>1685.6</ele>
        <time>2014-12-29T14:00:52Z</time>
      </trkpt>
      <trkpt lat="42.896912" lon="0.297217">
        <ele>1684.3</ele>
        <time>2014-12-29T14:01:00Z</time>
      </trkpt>
      <trkpt lat="42.896996" lon="0.297163">
        <ele>1682.8</ele>
        <time>2014-12-29T14:01:08Z</time>
      </trkpt>
      <trkpt lat="42.897077" lon="0.297109">
        <ele>1681.1</ele>
        <time>2014-12-29T14:01:16Z</time>
      </trkpt>
      <trkpt lat="42.897145" lon="0.297046">
        <ele>1679.7</ele>
        <time>2014-12-29T14:01:24Z</time>
      </trkpt>
      <trkpt lat="42.897216" lon="0.297009">
        <ele>1678.1</ele>
        <time>2014-12-29T14:01:33Z</time>
      </trkpt>
      <trkpt lat="42.897302" lon="0.296973">
        <ele>1676.5</ele>
        <time>2014-12-29T14:01:42Z</time>
      </trkpt>
      <trkpt lat="42.897380" lon="0.296939">
        <ele>1675.4</ele>
        <time>2014-12-29T14:01:49Z</time>
      </trkpt>
      <trkpt lat="42.897481" lon="0.296893">
        <ele>1673.4</ele>
        <time>2014-12-29T14:01:58Z</time>
      </trkpt>
      <trkpt lat="42.897576" lon="0.296817">
        <ele>1671.2</ele>
        <time>2014-12-29T14:02:08Z</time>
      </trkpt>
      <trkpt lat="42.897660" lon="0.296739">
        <ele>1668.8</ele>
        <time>2014-12-29T14:02:17Z</time>
      </trkpt>
      <trkpt lat="42.897737" lon="0.296668">
        <ele>1666.9</ele>
        <time>2014-12-29T14:02:25Z</time>
      </trkpt>
      <trkpt lat="42.897818" lon="0.296631">
        <ele>1664.9</ele>
        <time>2014-12-29T14:02:34Z</time>
      </trkpt>
      <trkpt lat="42.897896" lon="0.296586">
        <ele>1662.7</ele>
        <time>2014-12-29T14:02:44Z</time>
      </trkpt>
      <trkpt lat="42.897982" lon="0.296505">
        <ele>1660.8</ele>
        <time>2014-12-29T14:02:52Z</time>
      </trkpt>
      <trkpt lat="42.898057" lon="0.296404">
        <ele>1657.3</ele>
        <time>2014-12-29T14:03:03Z</time>
      </trkpt>
      <trkpt lat="42.898141" lon="0.296323">
        <ele>1654.7</ele>
        <time>2014-12-29T14:03:13Z</time>
      </trkpt>
      <trkpt lat="42.898214" lon="0.296266">
        <ele>1652.3</ele>
        <time>2014-12-29T14:03:21Z</time>
      </trkpt>
      <trkpt lat="42.898284" lon="0.296174">
        <ele>1649.7</ele>
        <time>2014-12-29T14:03:31Z</time>
      </trkpt>
      <trkpt lat="42.898362" lon="0.296099">
        <ele>1646.5</ele>
        <time>2014-12-29T14:03:44Z</time>
      </trkpt>
      <trkpt lat="42.898447" lon="0.296060">
        <ele>1644.3</ele>
        <time>2014-12-29T14:03:52Z</time>
      </trkpt>
      <trkpt lat="42.898522" lon="0.296007">
        <ele>1641.6</ele>
        <time>2014-12-29T14:04:02Z</time>
      </trkpt>
      <trkpt lat="42.898615" lon="0.295967">
        <ele>1639.5</ele>
        <time>2014-12-29T14:04:12Z</time>
      </trkpt>
      <trkpt lat="42.898703" lon="0.295954">
        <ele>1637.1</ele>
        <time>2014-12-29T14:04:21Z</time>
      </trkpt>
      <trkpt lat="42.898815" lon="0.295917">
        <ele>1634.3</ele>
        <time>2014-12-29T14:04:32Z</time>
      </trkpt>
      <trkpt lat="42.898898" lon="0.295864">
        <ele>1632.6</ele>
        <time>2014-12-29T14:04:42Z</time>
      </trkpt>
      <trkpt lat="42.898988" lon="0.295830">
        <ele>1629.1</ele>
        <time>2014-12-29T14:04:55Z</time>
      </trkpt>
      <trkpt lat="42.899067" lon="0.295758">
        <ele>1626.8</ele>
        <time>2014-12-29T14:05:08Z</time>
      </trkpt>
      <trkpt lat="42.899143" lon="0.295679">
        <ele>1624.2</ele>
        <time>2014-12-29T14:05:20Z</time>
      </trkpt>
      <trkpt lat="42.899234" lon="0.295649">
        <ele>1621.2</ele>
        <time>2014-12-29T14:05:37Z</time>
      </trkpt>
      <trkpt lat="42.899308" lon="0.295627">
        <ele>1619.2</ele>
        <time>2014-12-29T14:05:46Z</time>
      </trkpt>
      <trkpt lat="42.899386" lon="0.295562">
        <ele>1617.5</ele>
        <time>2014-12-29T14:05:54Z</time>
      </trkpt>
      <trkpt lat="42.899461" lon="0.295481">
        <ele>1614.9</ele>
        <time>2014-12-29T14:06:03Z</time>
      </trkpt>
      <trkpt lat="42.899517" lon="0.295409">
        <ele>1611.9</ele>
        <time>2014-12-29T14:06:12Z</time>
      </trkpt>
      <trkpt lat="42.899608" lon="0.295391">
        <ele>1608.6</ele>
        <time>2014-12-29T14:06:25Z</time>
      </trkpt>
      <trkpt lat="42.899690" lon="0.295378">
        <ele>1606.5</ele>
        <time>2014-12-29T14:06:47Z</time>
      </trkpt>
      <trkpt lat="42.899787" lon="0.295356">
        <ele>1604.7</ele>
        <time>2014-12-29T14:06:59Z</time>
      </trkpt>
      <trkpt lat="42.899887" lon="0.295354">
        <ele>1602.4</ele>
        <time>2014-12-29T14:07:12Z</time>
      </trkpt>
      <trkpt lat="42.899985" lon="0.295346">
        <ele>1600.1</ele>
        <time>2014-12-29T14:07:25Z</time>
      </trkpt>
      <trkpt lat="42.900083" lon="0.295326">
        <ele>1597.6</ele>
        <time>2014-12-29T14:07:37Z</time>
      </trkpt>
      <trkpt lat="42.900191" lon="0.295324">
        <ele>1594.1</ele>
        <time>2014-12-29T14:07:50Z</time>
      </trkpt>
      <trkpt lat="42.900289" lon="0.295312">
        <ele>1590.9</ele>
        <time>2014-12-29T14:08:01Z</time>
      </trkpt>
      <trkpt lat="42.900377" lon="0.295308">
        <ele>1587.9</ele>
        <time>2014-12-29T14:08:12Z</time>
      </trkpt>
      <trkpt lat="42.900467" lon="0.295315">
        <ele>1585.6</ele>
        <time>2014-12-29T14:08:21Z</time>
      </trkpt>
      <trkpt lat="42.900557" lon="0.295314">
        <ele>1583.6</ele>
        <time>2014-12-29T14:08:29Z</time>
      </trkpt>
      <trkpt lat="42.900653" lon="0.295309">
        <ele>1580.8</ele>
        <time>2014-12-29T14:08:40Z</time>
      </trkpt>
      <trkpt lat="42.900745" lon="0.295316">
        <ele>1577.4</ele>
        <time>2014-12-29T14:08:53Z</time>
      </trkpt>
      <trkpt lat="42.900833" lon="0.295327">
        <ele>1574.9</ele>
        <time>2014-12-29T14:09:02Z</time>
      </trkpt>
      <trkpt lat="42.900927" lon="0.295343">
        <ele>1572.7</ele>
        <time>2014-12-29T14:09:11Z</time>
      </trkpt>
      <trkpt lat="42.901010" lon="0.295364">
        <ele>1569.7</ele>
        <time>2014-12-29T14:09:21Z</time>
      </trkpt>
      <trkpt lat="42.901111" lon="0.295373">
        <ele>1566.1</ele>
        <time>2014-12-29T14:09:32Z</time>
      </trkpt>
      <trkpt lat="42.901199" lon="0.295391">
        <ele>1563.4</ele>
        <time>2014-12-29T14:09:42Z</time>
      </trkpt>
      <trkpt lat="42.901294" lon="0.295389">
        <ele>1559.6</ele>
        <time>2014-12-29T14:09:53Z</time>
      </trkpt>
      <trkpt lat="42.901377" lon="0.295394">
        <ele>1556.6</ele>
        <time>2014-12-29T14:10:05Z</time>
      </trkpt>
      <trkpt lat="42.901466" lon="0.295400">
        <ele>1553.9</ele>
        <time>2014-12-29T14:10:16Z</time>
      </trkpt>
      <trkpt lat="42.901566" lon="0.295403">
        <ele>1550.5</ele>
        <time>2014-12-29T14:10:28Z</time>
      </trkpt>
      <trkpt lat="42.901665" lon="0.295435">
        <ele>1547.0</ele>
        <time>2014-12-29T14:10:40Z</time>
      </trkpt>
      <trkpt lat="42.901754" lon="0.295454">
        <ele>1544.3</ele>
        <time>2014-12-29T14:10:51Z</time>
      </trkpt>
      <trkpt lat="42.901836" lon="0.295473">
        <ele>1541.9</ele>
        <time>2014-12-29T14:11:01Z</time>
      </trkpt>
      <trkpt lat="42.901925" lon="0.295481">
        <ele>1539.0</ele>
        <time>2014-12-29T14:11:11Z</time>
      </trkpt>
      <trkpt lat="42.902021" lon="0.295477">
        <ele>1536.0</ele>
        <time>2014-12-29T14:11:21Z</time>
      </trkpt>
      <trkpt lat="42.902047" lon="0.295446">
        <ele>1533.1</ele>
        <time>2014-12-29T14:12:17Z</time>
      </trkpt>
      <trkpt lat="42.902125" lon="0.295401">
        <ele>1531.2</ele>
        <time>2014-12-29T14:12:26Z</time>
      </trkpt>
      <trkpt lat="42.902198" lon="0.295351">
        <ele>1528.5</ele>
        <time>2014-12-29T14:12:34Z</time>
      </trkpt>
      <trkpt lat="42.902279" lon="0.295310">
        <ele>1525.3</ele>
        <time>2014-12-29T14:12:43Z</time>
      </trkpt>
      <trkpt lat="42.902361" lon="0.295287">
        <ele>1522.4</ele>
        <time>2014-12-29T14:12:51Z</time>
      </trkpt>
      <trkpt lat="42.902453" lon="0.295241">
        <ele>1518.7</ele>
        <time>2014-12-29T14:13:02Z</time>
      </trkpt>
      <trkpt lat="42.902547" lon="0.295216">
        <ele>1515.0</ele>
        <time>2014-12-29T14:13:12Z</time>
      </trkpt>
      <trkpt lat="42.902632" lon="0.295195">
        <ele>1512.1</ele>
        <time>2014-12-29T14:13:21Z</time>
      </trkpt>
      <trkpt lat="42.902719" lon="0.295183">
        <ele>1508.9</ele>
        <time>2014-12-29T14:13:31Z</time>
      </trkpt>
      <trkpt lat="42.902819" lon="0.295166">
        <ele>1505.4</ele>
        <time>2014-12-29T14:13:41Z</time>
      </trkpt>
      <trkpt lat="42.902899" lon="0.295120">
        <ele>1501.7</ele>
        <time>2014-12-29T14:13:51Z</time>
      </trkpt>
      <trkpt lat="42.902959" lon="0.295109">
        <ele>1497.3</ele>
        <time>2014-12-29T14:14:50Z</time>
      </trkpt>
      <trkpt lat="42.903010" lon="0.295040">
        <ele>1495.7</ele>
        <time>2014-12-29T14:15:28Z</time>
      </trkpt>
      <trkpt lat="42.903082" lon="0.294973">
        <ele>1492.5</ele>
        <time>2014-12-29T14:15:36Z</time>
      </trkpt>
      <trkpt lat="42.903140" lon="0.294883">
        <ele>1488.8</ele>
        <time>2014-12-29T14:15:44Z</time>
      </trkpt>
      <trkpt lat="42.903197" lon="0.294802">
        <ele>1485.0</ele>
        <time>2014-12-29T14:15:51Z</time>
      </trkpt>
      <trkpt lat="42.903241" lon="0.294753">
        <ele>1481.9</ele>
        <time>2014-12-29T14:15:58Z</time>
      </trkpt>
      <trkpt lat="42.903311" lon="0.294690">
        <ele>1479.0</ele>
        <time>2014-12-29T14:16:05Z</time>
      </trkpt>
      <trkpt lat="42.903375" lon="0.294622">
        <ele>1475.4</ele>
        <time>2014-12-29T14:16:13Z</time>
      </trkpt>
      <trkpt lat="42.903442" lon="0.294571">
        <ele>1471.1</ele>
        <time>2014-12-29T14:16:24Z</time>
      </trkpt>
      <trkpt lat="42.903499" lon="0.294561">
        <ele>1467.8</ele>
        <time>2014-12-29T14:16:42Z</time>
      </trkpt>
      <trkpt lat="42.903560" lon="0.294511">
        <ele>1465.0</ele>
        <time>2014-12-29T14:16:52Z</time>
      </trkpt>
      <trkpt lat="42.903651" lon="0.294433">
        <ele>1461.2</ele>
        <time>2014-12-29T14:17:04Z</time>
      </trkpt>
      <trkpt lat="42.903704" lon="0.294308">
        <ele>1457.2</ele>
        <time>2014-12-29T14:17:18Z</time>
      </trkpt>
      <trkpt lat="42.903788" lon="0.294282">
        <ele>1457.2</ele>
        <time>2014-12-29T14:17:34Z</time>
      </trkpt>
      <trkpt lat="42.903850" lon="0.294314">
        <ele>1456.1</ele>
        <time>2014-12-29T14:19:12Z</time>
      </trkpt>
      <trkpt lat="42.903937" lon="0.294373">
        <ele>1455.7</ele>
        <time>2014-12-29T14:19:40Z</time>
      </trkpt>
      <trkpt lat="42.904024" lon="0.294410">
        <ele>1454.7</ele>
        <time>2014-12-29T14:19:55Z</time>
      </trkpt>
      <trkpt lat="42.904111" lon="0.294452">
        <ele>1453.5</ele>
        <time>2014-12-29T14:20:14Z</time>
      </trkpt>
      <trkpt lat="42.904211" lon="0.294518">
        <ele>1452.1</ele>
        <time>2014-12-29T14:20:25Z</time>
      </trkpt>
      <trkpt lat="42.904303" lon="0.294565">
        <ele>1450.9</ele>
        <time>2014-12-29T14:20:34Z</time>
      </trkpt>
      <trkpt lat="42.904395" lon="0.294615">
        <ele>1449.5</ele>
        <time>2014-12-29T14:20:45Z</time>
      </trkpt>
      <trkpt lat="42.904471" lon="0.294683">
        <ele>1448.3</ele>
        <time>2014-12-29T14:20:57Z</time>
      </trkpt>
      <trkpt lat="42.904566" lon="0.294752">
        <ele>1447.1</ele>
        <time>2014-12-29T14:21:09Z</time>
      </trkpt>
      <trkpt lat="42.904644" lon="0.294824">
        <ele>1445.7</ele>
        <time>2014-12-29T14:21:21Z</time>
      </trkpt>
      <trkpt lat="42.904731" lon="0.294891">
        <ele>1444.8</ele>
        <time>2014-12-29T14:21:34Z</time>
      </trkpt>
      <trkpt lat="42.904814" lon="0.294940">
        <ele>1443.9</ele>
        <time>2014-12-29T14:21:44Z</time>
      </trkpt>
      <trkpt lat="42.904899" lon="0.294971">
        <ele>1443.4</ele>
        <time>2014-12-29T14:21:52Z</time>
      </trkpt>
      <trkpt lat="42.904985" lon="0.295026">
        <ele>1442.2</ele>
        <time>2014-12-29T14:22:01Z</time>
      </trkpt>
      <trkpt lat="42.905076" lon="0.295086">
        <ele>1441.2</ele>
        <time>2014-12-29T14:22:12Z</time>
      </trkpt>
      <trkpt lat="42.905159" lon="0.295162">
        <ele>1440.0</ele>
        <time>2014-12-29T14:22:23Z</time>
      </trkpt>
      <trkpt lat="42.905246" lon="0.295217">
        <ele>1439.1</ele>
        <time>2014-12-29T14:22:32Z</time>
      </trkpt>
      <trkpt lat="42.905330" lon="0.295271">
        <ele>1438.6</ele>
        <time>2014-12-29T14:22:42Z</time>
      </trkpt>
      <trkpt lat="42.905401" lon="0.295300">
        <ele>1437.8</ele>
        <time>2014-12-29T14:22:51Z</time>
      </trkpt>
      <trkpt lat="42.905481" lon="0.295319">
        <ele>1436.9</ele>
        <time>2014-12-29T14:23:01Z</time>
      </trkpt>
      <trkpt lat="42.905581" lon="0.295327">
        <ele>1436.0</ele>
        <time>2014-12-29T14:23:13Z</time>
      </trkpt>
      <trkpt lat="42.905674" lon="0.295340">
        <ele>1435.0</ele>
        <time>2014-12-29T14:23:23Z</time>
      </trkpt>
      <trkpt lat="42.905771" lon="0.295370">
        <ele>1433.9</ele>
        <time>2014-12-29T14:23:31Z</time>
      </trkpt>
      <trkpt lat="42.905867" lon="0.295416">
        <ele>1433.2</ele>
        <time>2014-12-29T14:23:40Z</time>
      </trkpt>
      <trkpt lat="42.905963" lon="0.295453">
        <ele>1432.7</ele>
        <time>2014-12-29T14:23:49Z</time>
      </trkpt>
      <trkpt lat="42.906059" lon="0.295490">
        <ele>1432.0</ele>
        <time>2014-12-29T14:23:57Z</time>
      </trkpt>
      <trkpt lat="42.906168" lon="0.295527">
        <ele>1431.1</ele>
        <time>2014-12-29T14:24:06Z</time>
      </trkpt>
      <trkpt lat="42.906249" lon="0.295573">
        <ele>1430.5</ele>
        <time>2014-12-29T14:24:14Z</time>
      </trkpt>
      <trkpt lat="42.906330" lon="0.295607">
        <ele>1429.8</ele>
        <time>2014-12-29T14:24:22Z</time>
      </trkpt>
      <trkpt lat="42.906443" lon="0.295644">
        <ele>1429.2</ele>
        <time>2014-12-29T14:24:31Z</time>
      </trkpt>
      <trkpt lat="42.906539" lon="0.295675">
        <ele>1428.6</ele>
        <time>2014-12-29T14:24:39Z</time>
      </trkpt>
      <trkpt lat="42.906631" lon="0.295711">
        <ele>1428.1</ele>
        <time>2014-12-29T14:24:47Z</time>
      </trkpt>
      <trkpt lat="42.906724" lon="0.295744">
        <ele>1427.7</ele>
        <time>2014-12-29T14:24:55Z</time>
      </trkpt>
      <trkpt lat="42.906816" lon="0.295782">
        <ele>1427.1</ele>
        <time>2014-12-29T14:25:03Z</time>
      </trkpt>
      <trkpt lat="42.906914" lon="0.295810">
        <ele>1426.2</ele>
        <time>2014-12-29T14:25:12Z</time>
      </trkpt>
      <trkpt lat="42.907010" lon="0.295826">
        <ele>1425.9</ele>
        <time>2014-12-29T14:25:20Z</time>
      </trkpt>
      <trkpt lat="42.907093" lon="0.295878">
        <ele>1425.3</ele>
        <time>2014-12-29T14:25:28Z</time>
      </trkpt>
      <trkpt lat="42.907170" lon="0.295882">
        <ele>1424.9</ele>
        <time>2014-12-29T14:25:37Z</time>
      </trkpt>
      <trkpt lat="42.907258" lon="0.295831">
        <ele>1424.5</ele>
        <time>2014-12-29T14:25:46Z</time>
      </trkpt>
      <trkpt lat="42.907343" lon="0.295786">
        <ele>1424.3</ele>
        <time>2014-12-29T14:25:56Z</time>
      </trkpt>
      <trkpt lat="42.907442" lon="0.295721">
        <ele>1423.9</ele>
        <time>2014-12-29T14:26:08Z</time>
      </trkpt>
      <trkpt lat="42.907532" lon="0.295659">
        <ele>1423.3</ele>
        <time>2014-12-29T14:26:20Z</time>
      </trkpt>
      <trkpt lat="42.907630" lon="0.295603">
        <ele>1423.1</ele>
        <time>2014-12-29T14:26:32Z</time>
      </trkpt>
      <trkpt lat="42.907717" lon="0.295554">
        <ele>1423.1</ele>
        <time>2014-12-29T14:26:41Z</time>
      </trkpt>
      <trkpt lat="42.907805" lon="0.295509">
        <ele>1422.8</ele>
        <time>2014-12-29T14:26:52Z</time>
      </trkpt>
      <trkpt lat="42.907910" lon="0.295529">
        <ele>1422.8</ele>
        <time>2014-12-29T14:27:04Z</time>
      </trkpt>
      <trkpt lat="42.908034" lon="0.295530">
        <ele>1423.9</ele>
        <time>2014-12-29T14:27:16Z</time>
      </trkpt>
      <trkpt lat="42.908113" lon="0.295483">
        <ele>1424.0</ele>
        <time>2014-12-29T14:27:40Z</time>
      </trkpt>
      <trkpt lat="42.908205" lon="0.295528">
        <ele>1423.8</ele>
        <time>2014-12-29T14:28:20Z</time>
      </trkpt>
      <trkpt lat="42.908292" lon="0.295592">
        <ele>1422.4</ele>
        <time>2014-12-29T14:28:33Z</time>
      </trkpt>
      <trkpt lat="42.908394" lon="0.295648">
        <ele>1420.2</ele>
        <time>2014-12-29T14:28:45Z</time>
      </trkpt>
      <trkpt lat="42.908490" lon="0.295719">
        <ele>1418.9</ele>
        <time>2014-12-29T14:28:58Z</time>
      </trkpt>
      <trkpt lat="42.908583" lon="0.295780">
        <ele>1418.3</ele>
        <time>2014-12-29T14:29:08Z</time>
      </trkpt>
      <trkpt lat="42.908668" lon="0.295841">
        <ele>1417.5</ele>
        <time>2014-12-29T14:29:20Z</time>
      </trkpt>
      <trkpt lat="42.908750" lon="0.295893">
        <ele>1417.4</ele>
        <time>2014-12-29T14:29:31Z</time>
      </trkpt>
      <trkpt lat="42.908842" lon="0.295954">
        <ele>1417.4</ele>
        <time>2014-12-29T14:29:42Z</time>
      </trkpt>
      <trkpt lat="42.908926" lon="0.296013">
        <ele>1417.4</ele>
        <time>2014-12-29T14:29:53Z</time>
      </trkpt>
      <trkpt lat="42.909010" lon="0.296077">
        <ele>1417.2</ele>
        <time>2014-12-29T14:30:04Z</time>
      </trkpt>
      <trkpt lat="42.909092" lon="0.296149">
        <ele>1417.7</ele>
        <time>2014-12-29T14:30:13Z</time>
      </trkpt>
      <trkpt lat="42.909162" lon="0.296218">
        <ele>1418.0</ele>
        <time>2014-12-29T14:30:22Z</time>
      </trkpt>
      <trkpt lat="42.909255" lon="0.296277">
        <ele>1418.1</ele>
        <time>2014-12-29T14:30:32Z</time>
      </trkpt>
      <trkpt lat="42.909349" lon="0.296310">
        <ele>1418.9</ele>
        <time>2014-12-29T14:30:42Z</time>
      </trkpt>
      <trkpt lat="42.909444" lon="0.296354">
        <ele>1419.0</ele>
        <time>2014-12-29T14:30:50Z</time>
      </trkpt>
      <trkpt lat="42.909537" lon="0.296326">
        <ele>1418.4</ele>
        <time>2014-12-29T14:30:59Z</time>
      </trkpt>
      <trkpt lat="42.909616" lon="0.296266">
        <ele>1418.2</ele>
        <time>2014-12-29T14:31:08Z</time>
      </trkpt>
      <trkpt lat="42.909703" lon="0.296180">
        <ele>1417.2</ele>
        <time>2014-12-29T14:31:19Z</time>
      </trkpt>
      <trkpt lat="42.909784" lon="0.296190">
        <ele>1416.3</ele>
        <time>2014-12-29T14:31:48Z</time>
      </trkpt>
      <trkpt lat="42.909856" lon="0.296287">
        <ele>1416.2</ele>
        <time>2014-12-29T14:32:02Z</time>
      </trkpt>
      <trkpt lat="42.909892" lon="0.296416">
        <ele>1416.5</ele>
        <time>2014-12-29T14:32:14Z</time>
      </trkpt>
      <trkpt lat="42.909962" lon="0.296514">
        <ele>1416.7</ele>
        <time>2014-12-29T14:32:25Z</time>
      </trkpt>
      <trkpt lat="42.910023" lon="0.296584">
        <ele>1417.2</ele>
        <time>2014-12-29T14:32:36Z</time>
      </trkpt>
      <trkpt lat="42.910107" lon="0.296670">
        <ele>1417.3</ele>
        <time>2014-12-29T14:32:49Z</time>
      </trkpt>
      <trkpt lat="42.910189" lon="0.296748">
        <ele>1418.1</ele>
        <time>2014-12-29T14:33:02Z</time>
      </trkpt>
      <trkpt lat="42.910248" lon="0.296823">
        <ele>1418.1</ele>
        <time>2014-12-29T14:33:14Z</time>
      </trkpt>
      <trkpt lat="42.910319" lon="0.296879">
        <ele>1419.0</ele>
        <time>2014-12-29T14:33:26Z</time>
      </trkpt>
      <trkpt lat="42.910396" lon="0.296977">
        <ele>1419.7</ele>
        <time>2014-12-29T14:33:38Z</time>
      </trkpt>
      <trkpt lat="42.910456" lon="0.297084">
        <ele>1420.3</ele>
        <time>2014-12-29T14:33:49Z</time>
      </trkpt>
      <trkpt lat="42.910465" lon="0.297195">
        <ele>1420.9</ele>
        <time>2014-12-29T14:33:59Z</time>
      </trkpt>
      <trkpt lat="42.910477" lon="0.297315">
        <ele>1420.4</ele>
        <time>2014-12-29T14:34:10Z</time>
      </trkpt>
      <trkpt lat="42.910488" lon="0.297450">
        <ele>1419.1</ele>
        <time>2014-12-29T14:34:20Z</time>
      </trkpt>
      <trkpt lat="42.910506" lon="0.297577">
        <ele>1417.9</ele>
        <time>2014-12-29T14:34:30Z</time>
      </trkpt>
      <trkpt lat="42.910539" lon="0.297549">
        <ele>1417.4</ele>
        <time>2014-12-29T14:35:14Z</time>
      </trkpt>
      <trkpt lat="42.910659" lon="0.297572">
        <ele>1417.2</ele>
        <time>2014-12-29T14:35:25Z</time>
      </trkpt>
      <trkpt lat="42.910758" lon="0.297574">
        <ele>1416.8</ele>
        <time>2014-12-29T14:35:33Z</time>
      </trkpt>
      <trkpt lat="42.910858" lon="0.297582">
        <ele>1416.3</ele>
        <time>2014-12-29T14:35:41Z</time>
      </trkpt>
      <trkpt lat="42.910953" lon="0.297584">
        <ele>1415.7</ele>
        <time>2014-12-29T14:35:49Z</time>
      </trkpt>
      <trkpt lat="42.911024" lon="0.297570">
        <ele>1415.1</ele>
        <time>2014-12-29T14:35:57Z</time>
      </trkpt>
      <trkpt lat="42.911122" lon="0.297568">
        <ele>1414.4</ele>
        <time>2014-12-29T14:36:05Z</time>
      </trkpt>
      <trkpt lat="42.911209" lon="0.297548">
        <ele>1413.6</ele>
        <time>2014-12-29T14:36:14Z</time>
      </trkpt>
      <trkpt lat="42.911303" lon="0.297535">
        <ele>1413.0</ele>
        <time>2014-12-29T14:36:22Z</time>
      </trkpt>
      <trkpt lat="42.911402" lon="0.297531">
        <ele>1412.4</ele>
        <time>2014-12-29T14:36:29Z</time>
      </trkpt>
      <trkpt lat="42.911491" lon="0.297502">
        <ele>1411.5</ele>
        <time>2014-12-29T14:36:37Z</time>
      </trkpt>
      <trkpt lat="42.911579" lon="0.297477">
        <ele>1410.3</ele>
        <time>2014-12-29T14:36:44Z</time>
      </trkpt>
      <trkpt lat="42.911673" lon="0.297500">
        <ele>1409.2</ele>
        <time>2014-12-29T14:36:51Z</time>
      </trkpt>
      <trkpt lat="42.911767" lon="0.297536">
        <ele>1407.4</ele>
        <time>2014-12-29T14:36:59Z</time>
      </trkpt>
      <trkpt lat="42.911851" lon="0.297562">
        <ele>1405.7</ele>
        <time>2014-12-29T14:37:06Z</time>
      </trkpt>
      <trkpt lat="42.911943" lon="0.297555">
        <ele>1403.9</ele>
        <time>2014-12-29T14:37:15Z</time>
      </trkpt>
      <trkpt lat="42.912032" lon="0.297552">
        <ele>1402.7</ele>
        <time>2014-12-29T14:37:23Z</time>
      </trkpt>
      <trkpt lat="42.912128" lon="0.297559">
        <ele>1401.1</ele>
        <time>2014-12-29T14:37:31Z</time>
      </trkpt>
      <trkpt lat="42.912228" lon="0.297571">
        <ele>1399.9</ele>
        <time>2014-12-29T14:37:39Z</time>
      </trkpt>
      <trkpt lat="42.912332" lon="0.297590">
        <ele>1399.0</ele>
        <time>2014-12-29T14:37:47Z</time>
      </trkpt>
      <trkpt lat="42.912434" lon="0.297610">
        <ele>1398.4</ele>
        <time>2014-12-29T14:37:56Z</time>
      </trkpt>
      <trkpt lat="42.912535" lon="0.297688">
        <ele>1396.9</ele>
        <time>2014-12-29T14:38:06Z</time>
      </trkpt>
      <trkpt lat="42.912614" lon="0.297785">
        <ele>1396.5</ele>
        <time>2014-12-29T14:38:17Z</time>
      </trkpt>
      <trkpt lat="42.912703" lon="0.297884">
        <ele>1395.8</ele>
        <time>2014-12-29T14:38:27Z</time>
      </trkpt>
      <trkpt lat="42.912709" lon="0.298002">
        <ele>1393.7</ele>
        <time>2014-12-29T14:40:48Z</time>
      </trkpt>
      <trkpt lat="42.912686" lon="0.298060">
        <ele>1392.5</ele>
        <time>2014-12-29T14:45:50Z</time>
      </trkpt>
      <trkpt lat="42.912663" lon="0.298186">
        <ele>1392.7</ele>
        <time>2014-12-29T14:45:59Z</time>
      </trkpt>
      <trkpt lat="42.912703" lon="0.298295">
        <ele>1392.7</ele>
        <time>2014-12-29T14:46:13Z</time>
      </trkpt>
      <trkpt lat="42.912791" lon="0.298321">
        <ele>1394.7</ele>
        <time>2014-12-29T14:46:30Z</time>
      </trkpt>
      <trkpt lat="42.912873" lon="0.298284">
        <ele>1396.3</ele>
        <time>2014-12-29T14:47:00Z</time>
      </trkpt>
      <trkpt lat="42.912961" lon="0.298224">
        <ele>1396.0</ele>
        <time>2014-12-29T14:47:18Z</time>
      </trkpt>
      <trkpt lat="42.913052" lon="0.298185">
        <ele>1397.1</ele>
        <time>2014-12-29T14:47:35Z</time>
      </trkpt>
      <trkpt lat="42.913145" lon="0.298155">
        <ele>1397.0</ele>
        <time>2014-12-29T14:47:52Z</time>
      </trkpt>
      <trkpt lat="42.913240" lon="0.298120">
        <ele>1399.3</ele>
        <time>2014-12-29T14:48:16Z</time>
      </trkpt>
      <trkpt lat="42.913299" lon="0.298031">
        <ele>1398.4</ele>
        <time>2014-12-29T14:48:35Z</time>
      </trkpt>
      <trkpt lat="42.913374" lon="0.297972">
        <ele>1397.3</ele>
        <time>2014-12-29T14:49:07Z</time>
      </trkpt>
      <trkpt lat="42.913473" lon="0.297931">
        <ele>1396.6</ele>
        <time>2014-12-29T14:49:31Z</time>
      </trkpt>
      <trkpt lat="42.913533" lon="0.297856">
        <ele>1395.7</ele>
        <time>2014-12-29T14:50:03Z</time>
      </trkpt>
      <trkpt lat="42.913613" lon="0.297749">
        <ele>1393.9</ele>
        <time>2014-12-29T14:50:26Z</time>
      </trkpt>
      <trkpt lat="42.913650" lon="0.297622">
        <ele>1392.8</ele>
        <time>2014-12-29T14:50:46Z</time>
      </trkpt>
      <trkpt lat="42.913743" lon="0.297483">
        <ele>1391.3</ele>
        <time>2014-12-29T14:51:02Z</time>
      </trkpt>
      <trkpt lat="42.913805" lon="0.297292">
        <ele>1389.2</ele>
        <time>2014-12-29T14:51:17Z</time>
      </trkpt>
      <trkpt lat="42.913900" lon="0.297178">
        <ele>1387.8</ele>
        <time>2014-12-29T14:51:31Z</time>
      </trkpt>
      <trkpt lat="42.914001" lon="0.297126">
        <ele>1389.2</ele>
        <time>2014-12-29T14:51:50Z</time>
      </trkpt>
      <trkpt lat="42.914083" lon="0.297041">
        <ele>1389.6</ele>
        <time>2014-12-29T14:52:03Z</time>
      </trkpt>
      <trkpt lat="42.914175" lon="0.296925">
        <ele>1389.5</ele>
        <time>2014-12-29T14:52:17Z</time>
      </trkpt>
      <trkpt lat="42.914268" lon="0.296802">
        <ele>1389.5</ele>
        <time>2014-12-29T14:52:29Z</time>
      </trkpt>
      <trkpt lat="42.914365" lon="0.296679">
        <ele>1388.9</ele>
        <time>2014-12-29T14:52:40Z</time>
      </trkpt>
      <trkpt lat="42.914446" lon="0.296590">
        <ele>1388.3</ele>
        <time>2014-12-29T14:52:53Z</time>
      </trkpt>
      <trkpt lat="42.914556" lon="0.296482">
        <ele>1387.2</ele>
        <time>2014-12-29T14:53:06Z</time>
      </trkpt>
      <trkpt lat="42.914645" lon="0.296374">
        <ele>1385.8</ele>
        <time>2014-12-29T14:53:17Z</time>
      </trkpt>
      <trkpt lat="42.914782" lon="0.296306">
        <ele>1384.3</ele>
        <time>2014-12-29T14:53:30Z</time>
      </trkpt>
      <trkpt lat="42.914899" lon="0.296246">
        <ele>1382.9</ele>
        <time>2014-12-29T14:53:42Z</time>
      </trkpt>
      <trkpt lat="42.915018" lon="0.296177">
        <ele>1381.2</ele>
        <time>2014-12-29T14:53:54Z</time>
      </trkpt>
      <trkpt lat="42.915137" lon="0.296071">
        <ele>1379.6</ele>
        <time>2014-12-29T14:54:08Z</time>
      </trkpt>
      <trkpt lat="42.915285" lon="0.295991">
        <ele>1378.2</ele>
        <time>2014-12-29T14:54:20Z</time>
      </trkpt>
      <trkpt lat="42.915380" lon="0.295890">
        <ele>1376.5</ele>
        <time>2014-12-29T14:54:33Z</time>
      </trkpt>
      <trkpt lat="42.915476" lon="0.295835">
        <ele>1374.4</ele>
        <time>2014-12-29T14:54:46Z</time>
      </trkpt>
      <trkpt lat="42.915623" lon="0.295758">
        <ele>1373.1</ele>
        <time>2014-12-29T14:55:00Z</time>
      </trkpt>
      <trkpt lat="42.915728" lon="0.295715">
        <ele>1372.1</ele>
        <time>2014-12-29T14:55:14Z</time>
      </trkpt>
      <trkpt lat="42.915851" lon="0.295620">
        <ele>1369.6</ele>
        <time>2014-12-29T14:55:28Z</time>
      </trkpt>
      <trkpt lat="42.915949" lon="0.295562">
        <ele>1368.3</ele>
        <time>2014-12-29T14:55:38Z</time>
      </trkpt>
      <trkpt lat="42.916055" lon="0.295506">
        <ele>1366.3</ele>
        <time>2014-12-29T14:55:49Z</time>
      </trkpt>
      <trkpt lat="42.916157" lon="0.295444">
        <ele>1365.1</ele>
        <time>2014-12-29T14:55:58Z</time>
      </trkpt>
      <trkpt lat="42.916228" lon="0.295385">
        <ele>1363.2</ele>
        <time>2014-12-29T14:56:11Z</time>
      </trkpt>
      <trkpt lat="42.916331" lon="0.295295">
        <ele>1361.4</ele>
        <time>2014-12-29T14:56:27Z</time>
      </trkpt>
      <trkpt lat="42.916411" lon="0.295228">
        <ele>1359.5</ele>
        <time>2014-12-29T14:56:39Z</time>
      </trkpt>
      <trkpt lat="42.916537" lon="0.295215">
        <ele>1357.2</ele>
        <time>2014-12-29T14:56:51Z</time>
      </trkpt>
      <trkpt lat="42.916642" lon="0.295185">
        <ele>1356.0</ele>
        <time>2014-12-29T14:57:03Z</time>
      </trkpt>
      <trkpt lat="42.916751" lon="0.295180">
        <ele>1354.9</ele>
        <time>2014-12-29T14:57:15Z</time>
      </trkpt>
      <trkpt lat="42.917136" lon="0.295155">
        <ele>1372.5</ele>
        <time>2014-12-29T14:57:48Z</time>
      </trkpt>
      <trkpt lat="42.917174" lon="0.295223">
        <ele>1367.9</ele>
        <time>2014-12-29T14:58:41Z</time>
      </trkpt>
      <trkpt lat="42.917321" lon="0.295220">
        <ele>1365.1</ele>
        <time>2014-12-29T14:58:56Z</time>
      </trkpt>
      <trkpt lat="42.917505" lon="0.295228">
        <ele>1362.5</ele>
        <time>2014-12-29T14:59:10Z</time>
      </trkpt>
      <trkpt lat="42.917637" lon="0.295281">
        <ele>1360.6</ele>
        <time>2014-12-29T14:59:21Z</time>
      </trkpt>
      <trkpt lat="42.917723" lon="0.295342">
        <ele>1358.3</ele>
        <time>2014-12-29T14:59:29Z</time>
      </trkpt>
      <trkpt lat="42.917803" lon="0.295422">
        <ele>1356.1</ele>
        <time>2014-12-29T14:59:38Z</time>
      </trkpt>
      <trkpt lat="42.917882" lon="0.295543">
        <ele>1354.3</ele>
        <time>2014-12-29T14:59:46Z</time>
      </trkpt>
      <trkpt lat="42.917958" lon="0.295654">
        <ele>1351.9</ele>
        <time>2014-12-29T14:59:55Z</time>
      </trkpt>
      <trkpt lat="42.918032" lon="0.295743">
        <ele>1349.8</ele>
        <time>2014-12-29T15:00:04Z</time>
      </trkpt>
      <trkpt lat="42.918117" lon="0.295839">
        <ele>1347.5</ele>
        <time>2014-12-29T15:00:16Z</time>
      </trkpt>
      <trkpt lat="42.918216" lon="0.295915">
        <ele>1346.1</ele>
        <time>2014-12-29T15:00:27Z</time>
      </trkpt>
      <trkpt lat="42.918316" lon="0.295988">
        <ele>1344.5</ele>
        <time>2014-12-29T15:00:38Z</time>
      </trkpt>
      <trkpt lat="42.918408" lon="0.296034">
        <ele>1342.1</ele>
        <time>2014-12-29T15:00:48Z</time>
      </trkpt>
      <trkpt lat="42.918510" lon="0.296081">
        <ele>1339.6</ele>
        <time>2014-12-29T15:00:59Z</time>
      </trkpt>
      <trkpt lat="42.918600" lon="0.296137">
        <ele>1336.9</ele>
        <time>2014-12-29T15:01:11Z</time>
      </trkpt>
      <trkpt lat="42.918630" lon="0.296271">
        <ele>1334.8</ele>
        <time>2014-12-29T15:01:23Z</time>
      </trkpt>
      <trkpt lat="42.918681" lon="0.296366">
        <ele>1333.2</ele>
        <time>2014-12-29T15:01:34Z</time>
      </trkpt>
      <trkpt lat="42.918758" lon="0.296428">
        <ele>1331.8</ele>
        <time>2014-12-29T15:01:47Z</time>
      </trkpt>
      <trkpt lat="42.918854" lon="0.296459">
        <ele>1330.3</ele>
        <time>2014-12-29T15:02:02Z</time>
      </trkpt>
      <trkpt lat="42.918945" lon="0.296558">
        <ele>1329.1</ele>
        <time>2014-12-29T15:02:20Z</time>
      </trkpt>
      <trkpt lat="42.919005" lon="0.296698">
        <ele>1328.3</ele>
        <time>2014-12-29T15:02:32Z</time>
      </trkpt>
      <trkpt lat="42.919088" lon="0.296735">
        <ele>1327.6</ele>
        <time>2014-12-29T15:02:45Z</time>
      </trkpt>
      <trkpt lat="42.919176" lon="0.296779">
        <ele>1326.6</ele>
        <time>2014-12-29T15:02:58Z</time>
      </trkpt>
      <trkpt lat="42.919274" lon="0.296805">
        <ele>1325.2</ele>
        <time>2014-12-29T15:03:13Z</time>
      </trkpt>
      <trkpt lat="42.919382" lon="0.296845">
        <ele>1324.2</ele>
        <time>2014-12-29T15:03:26Z</time>
      </trkpt>
      <trkpt lat="42.919479" lon="0.296833">
        <ele>1323.5</ele>
        <time>2014-12-29T15:03:38Z</time>
      </trkpt>
      <trkpt lat="42.919579" lon="0.296816">
        <ele>1322.4</ele>
        <time>2014-12-29T15:03:50Z</time>
      </trkpt>
      <trkpt lat="42.919673" lon="0.296779">
        <ele>1321.2</ele>
        <time>2014-12-29T15:04:03Z</time>
      </trkpt>
      <trkpt lat="42.919777" lon="0.296770">
        <ele>1320.6</ele>
        <time>2014-12-29T15:04:14Z</time>
      </trkpt>
      <trkpt lat="42.919863" lon="0.296765">
        <ele>1320.2</ele>
        <time>2014-12-29T15:04:26Z</time>
      </trkpt>
      <trkpt lat="42.919955" lon="0.296750">
        <ele>1319.6</ele>
        <time>2014-12-29T15:04:38Z</time>
      </trkpt>
      <trkpt lat="42.920048" lon="0.296729">
        <ele>1319.1</ele>
        <time>2014-12-29T15:04:49Z</time>
      </trkpt>
      <trkpt lat="42.920137" lon="0.296722">
        <ele>1318.1</ele>
        <time>2014-12-29T15:05:00Z</time>
      </trkpt>
      <trkpt lat="42.920224" lon="0.296687">
        <ele>1316.6</ele>
        <time>2014-12-29T15:05:10Z</time>
      </trkpt>
      <trkpt lat="42.920289" lon="0.296587">
        <ele>1315.8</ele>
        <time>2014-12-29T15:05:22Z</time>
      </trkpt>
      <trkpt lat="42.920384" lon="0.296550">
        <ele>1315.1</ele>
        <time>2014-12-29T15:05:35Z</time>
      </trkpt>
      <trkpt lat="42.920476" lon="0.296608">
        <ele>1314.0</ele>
        <time>2014-12-29T15:05:53Z</time>
      </trkpt>
      <trkpt lat="42.920568" lon="0.296634">
        <ele>1314.5</ele>
        <time>2014-12-29T15:06:06Z</time>
      </trkpt>
      <trkpt lat="42.920660" lon="0.296670">
        <ele>1314.1</ele>
        <time>2014-12-29T15:06:19Z</time>
      </trkpt>
      <trkpt lat="42.920749" lon="0.296754">
        <ele>1314.1</ele>
        <time>2014-12-29T15:06:33Z</time>
      </trkpt>
      <trkpt lat="42.920850" lon="0.296802">
        <ele>1313.1</ele>
        <time>2014-12-29T15:06:48Z</time>
      </trkpt>
      <trkpt lat="42.920939" lon="0.296836">
        <ele>1312.3</ele>
        <time>2014-12-29T15:07:03Z</time>
      </trkpt>
      <trkpt lat="42.921035" lon="0.296846">
        <ele>1312.3</ele>
        <time>2014-12-29T15:07:25Z</time>
      </trkpt>
      <trkpt lat="42.921120" lon="0.296893">
        <ele>1312.7</ele>
        <time>2014-12-29T15:07:40Z</time>
      </trkpt>
      <trkpt lat="42.921217" lon="0.296924">
        <ele>1313.1</ele>
        <time>2014-12-29T15:07:56Z</time>
      </trkpt>
      <trkpt lat="42.921303" lon="0.296991">
        <ele>1313.6</ele>
        <time>2014-12-29T15:08:12Z</time>
      </trkpt>
      <trkpt lat="42.921413" lon="0.297005">
        <ele>1314.5</ele>
        <time>2014-12-29T15:08:29Z</time>
      </trkpt>
      <trkpt lat="42.921522" lon="0.297026">
        <ele>1314.7</ele>
        <time>2014-12-29T15:08:44Z</time>
      </trkpt>
      <trkpt lat="42.921598" lon="0.297038">
        <ele>1315.5</ele>
        <time>2014-12-29T15:09:08Z</time>
      </trkpt>
      <trkpt lat="42.921656" lon="0.297095">
        <ele>1315.7</ele>
        <time>2014-12-29T15:10:08Z</time>
      </trkpt>
      <trkpt lat="42.921758" lon="0.297098">
        <ele>1316.7</ele>
        <time>2014-12-29T15:10:25Z</time>
      </trkpt>
      <trkpt lat="42.921855" lon="0.297126">
        <ele>1317.7</ele>
        <time>2014-12-29T15:10:42Z</time>
      </trkpt>
      <trkpt lat="42.921906" lon="0.297029">
        <ele>1318.7</ele>
        <time>2014-12-29T15:10:55Z</time>
      </trkpt>
      <trkpt lat="42.921926" lon="0.296912">
        <ele>1319.1</ele>
        <time>2014-12-29T15:11:07Z</time>
      </trkpt>
      <trkpt lat="42.921981" lon="0.296784">
        <ele>1319.7</ele>
        <time>2014-12-29T15:11:20Z</time>
      </trkpt>
      <trkpt lat="42.922022" lon="0.296684">
        <ele>1319.7</ele>
        <time>2014-12-29T15:11:34Z</time>
      </trkpt>
      <trkpt lat="42.922083" lon="0.296560">
        <ele>1319.1</ele>
        <time>2014-12-29T15:11:46Z</time>
      </trkpt>
      <trkpt lat="42.922166" lon="0.296465">
        <ele>1318.3</ele>
        <time>2014-12-29T15:11:58Z</time>
      </trkpt>
      <trkpt lat="42.922254" lon="0.296383">
        <ele>1317.9</ele>
        <time>2014-12-29T15:12:08Z</time>
      </trkpt>
      <trkpt lat="42.922313" lon="0.296332">
        <ele>1317.1</ele>
        <time>2014-12-29T15:12:36Z</time>
      </trkpt>
      <trkpt lat="42.922435" lon="0.296306">
        <ele>1317.3</ele>
        <time>2014-12-29T15:12:49Z</time>
      </trkpt>
      <trkpt lat="42.922519" lon="0.296226">
        <ele>1317.8</ele>
        <time>2014-12-29T15:13:02Z</time>
      </trkpt>
      <trkpt lat="42.922612" lon="0.296140">
        <ele>1318.0</ele>
        <time>2014-12-29T15:13:15Z</time>
      </trkpt>
      <trkpt lat="42.922715" lon="0.296089">
        <ele>1317.8</ele>
        <time>2014-12-29T15:13:27Z</time>
      </trkpt>
      <trkpt lat="42.922838" lon="0.296025">
        <ele>1317.4</ele>
        <time>2014-12-29T15:13:39Z</time>
      </trkpt>
      <trkpt lat="42.922929" lon="0.295951">
        <ele>1316.6</ele>
        <time>2014-12-29T15:13:51Z</time>
      </trkpt>
      <trkpt lat="42.923032" lon="0.295903">
        <ele>1317.1</ele>
        <time>2014-12-29T15:14:05Z</time>
      </trkpt>
      <trkpt lat="42.923168" lon="0.295869">
        <ele>1316.9</ele>
        <time>2014-12-29T15:14:17Z</time>
      </trkpt>
      <trkpt lat="42.923273" lon="0.295859">
        <ele>1316.4</ele>
        <time>2014-12-29T15:14:29Z</time>
      </trkpt>
      <trkpt lat="42.923399" lon="0.295829">
        <ele>1315.6</ele>
        <time>2014-12-29T15:14:42Z</time>
      </trkpt>
      <trkpt lat="42.923529" lon="0.295819">
        <ele>1315.3</ele>
        <time>2014-12-29T15:14:54Z</time>
      </trkpt>
      <trkpt lat="42.923634" lon="0.295822">
        <ele>1315.8</ele>
        <time>2014-12-29T15:15:07Z</time>
      </trkpt>
      <trkpt lat="42.923754" lon="0.295807">
        <ele>1315.2</ele>
        <time>2014-12-29T15:15:20Z</time>
      </trkpt>
      <trkpt lat="42.923864" lon="0.295793">
        <ele>1315.2</ele>
        <time>2014-12-29T15:15:34Z</time>
      </trkpt>
      <trkpt lat="42.924001" lon="0.295834">
        <ele>1315.6</ele>
        <time>2014-12-29T15:15:51Z</time>
      </trkpt>
      <trkpt lat="42.924118" lon="0.295823">
        <ele>1315.9</ele>
        <time>2014-12-29T15:16:02Z</time>
      </trkpt>
      <trkpt lat="42.924243" lon="0.295845">
        <ele>1316.4</ele>
        <time>2014-12-29T15:16:15Z</time>
      </trkpt>
      <trkpt lat="42.924343" lon="0.295835">
        <ele>1316.2</ele>
        <time>2014-12-29T15:16:28Z</time>
      </trkpt>
      <trkpt lat="42.924432" lon="0.295850">
        <ele>1315.6</ele>
        <time>2014-12-29T15:16:39Z</time>
      </trkpt>
      <trkpt lat="42.924543" lon="0.295859">
        <ele>1314.2</ele>
        <time>2014-12-29T15:16:53Z</time>
      </trkpt>
      <trkpt lat="42.924682" lon="0.295858">
        <ele>1313.7</ele>
        <time>2014-12-29T15:17:06Z</time>
      </trkpt>
      <trkpt lat="42.924796" lon="0.295863">
        <ele>1312.4</ele>
        <time>2014-12-29T15:17:19Z</time>
      </trkpt>
      <trkpt lat="42.924914" lon="0.295888">
        <ele>1311.1</ele>
        <time>2014-12-29T15:17:32Z</time>
      </trkpt>
      <trkpt lat="42.925051" lon="0.295922">
        <ele>1310.2</ele>
        <time>2014-12-29T15:17:45Z</time>
      </trkpt>
      <trkpt lat="42.925151" lon="0.295948">
        <ele>1309.2</ele>
        <time>2014-12-29T15:17:57Z</time>
      </trkpt>
      <trkpt lat="42.925256" lon="0.295970">
        <ele>1308.9</ele>
        <time>2014-12-29T15:18:10Z</time>
      </trkpt>
      <trkpt lat="42.925401" lon="0.296011">
        <ele>1308.0</ele>
        <time>2014-12-29T15:18:24Z</time>
      </trkpt>
      <trkpt lat="42.925483" lon="0.296053">
        <ele>1307.1</ele>
        <time>2014-12-29T15:18:45Z</time>
      </trkpt>
      <trkpt lat="42.925561" lon="0.296134">
        <ele>1307.3</ele>
        <time>2014-12-29T15:19:15Z</time>
      </trkpt>
      <trkpt lat="42.925677" lon="0.296186">
        <ele>1306.4</ele>
        <time>2014-12-29T15:19:30Z</time>
      </trkpt>
      <trkpt lat="42.925811" lon="0.296233">
        <ele>1306.2</ele>
        <time>2014-12-29T15:19:44Z</time>
      </trkpt>
      <trkpt lat="42.925912" lon="0.296281">
        <ele>1305.7</ele>
        <time>2014-12-29T15:19:56Z</time>
      </trkpt>
      <trkpt lat="42.926027" lon="0.296304">
        <ele>1305.6</ele>
        <time>2014-12-29T15:20:09Z</time>
      </trkpt>
      <trkpt lat="42.926130" lon="0.296341">
        <ele>1304.9</ele>
        <time>2014-12-29T15:20:22Z</time>
      </trkpt>
      <trkpt lat="42.926225" lon="0.296370">
        <ele>1304.8</ele>
        <time>2014-12-29T15:20:38Z</time>
      </trkpt>
      <trkpt lat="42.926343" lon="0.296425">
        <ele>1304.0</ele>
        <time>2014-12-29T15:20:51Z</time>
      </trkpt>
      <trkpt lat="42.926447" lon="0.296483">
        <ele>1302.9</ele>
        <time>2014-12-29T15:21:04Z</time>
      </trkpt>
      <trkpt lat="42.926570" lon="0.296436">
        <ele>1300.3</ele>
        <time>2014-12-29T15:21:18Z</time>
      </trkpt>
      <trkpt lat="42.926676" lon="0.296366">
        <ele>1297.4</ele>
        <time>2014-12-29T15:21:31Z</time>
      </trkpt>
      <trkpt lat="42.926796" lon="0.296287">
        <ele>1294.6</ele>
        <time>2014-12-29T15:21:44Z</time>
      </trkpt>
      <trkpt lat="42.926901" lon="0.296182">
        <ele>1291.3</ele>
        <time>2014-12-29T15:21:56Z</time>
      </trkpt>
      <trkpt lat="42.927026" lon="0.296185">
        <ele>1288.8</ele>
        <time>2014-12-29T15:22:08Z</time>
      </trkpt>
      <trkpt lat="42.927151" lon="0.296172">
        <ele>1285.8</ele>
        <time>2014-12-29T15:22:21Z</time>
      </trkpt>
      <trkpt lat="42.927252" lon="0.296181">
        <ele>1283.1</ele>
        <time>2014-12-29T15:22:30Z</time>
      </trkpt>
      <trkpt lat="42.927282" lon="0.296190">
        <ele>1280.6</ele>
        <time>2014-12-29T15:23:16Z</time>
      </trkpt>
      <trkpt lat="42.927236" lon="0.296131">
        <ele>1280.6</ele>
        <time>2014-12-29T15:24:34Z</time>
      </trkpt>
      <trkpt lat="42.927316" lon="0.296182">
        <ele>1280.1</ele>
        <time>2014-12-29T15:25:02Z</time>
      </trkpt>
      <trkpt lat="42.927432" lon="0.296171">
        <ele>1277.5</ele>
        <time>2014-12-29T15:25:13Z</time>
      </trkpt>
      <trkpt lat="42.927547" lon="0.296134">
        <ele>1273.5</ele>
        <time>2014-12-29T15:25:29Z</time>
      </trkpt>
      <trkpt lat="42.927667" lon="0.296087">
        <ele>1270.6</ele>
        <time>2014-12-29T15:25:43Z</time>
      </trkpt>
      <trkpt lat="42.927801" lon="0.296088">
        <ele>1267.5</ele>
        <time>2014-12-29T15:25:54Z</time>
      </trkpt>
      <trkpt lat="42.927926" lon="0.296110">
        <ele>1265.4</ele>
        <time>2014-12-29T15:26:06Z</time>
      </trkpt>
      <trkpt lat="42.928071" lon="0.296096">
        <ele>1263.3</ele>
        <time>2014-12-29T15:26:18Z</time>
      </trkpt>
      <trkpt lat="42.928186" lon="0.296078">
        <ele>1260.3</ele>
        <time>2014-12-29T15:26:32Z</time>
      </trkpt>
      <trkpt lat="42.928335" lon="0.296045">
        <ele>1257.9</ele>
        <time>2014-12-29T15:26:44Z</time>
      </trkpt>
      <trkpt lat="42.928467" lon="0.296021">
        <ele>1255.7</ele>
        <time>2014-12-29T15:26:55Z</time>
      </trkpt>
      <trkpt lat="42.928592" lon="0.295981">
        <ele>1253.2</ele>
        <time>2014-12-29T15:27:06Z</time>
      </trkpt>
      <trkpt lat="42.928716" lon="0.295973">
        <ele>1250.5</ele>
        <time>2014-12-29T15:27:18Z</time>
      </trkpt>
      <trkpt lat="42.928869" lon="0.296024">
        <ele>1248.1</ele>
        <time>2014-12-29T15:27:30Z</time>
      </trkpt>
      <trkpt lat="42.928988" lon="0.296049">
        <ele>1246.1</ele>
        <time>2014-12-29T15:27:42Z</time>
      </trkpt>
      <trkpt lat="42.929125" lon="0.296087">
        <ele>1243.9</ele>
        <time>2014-12-29T15:27:55Z</time>
      </trkpt>
      <trkpt lat="42.929253" lon="0.296110">
        <ele>1241.2</ele>
        <time>2014-12-29T15:28:07Z</time>
      </trkpt>
      <trkpt lat="42.929371" lon="0.296073">
        <ele>1237.9</ele>
        <time>2014-12-29T15:28:20Z</time>
      </trkpt>
      <trkpt lat="42.929498" lon="0.296021">
        <ele>1235.8</ele>
        <time>2014-12-29T15:28:31Z</time>
      </trkpt>
      <trkpt lat="42.929616" lon="0.295998">
        <ele>1232.9</ele>
        <time>2014-12-29T15:28:43Z</time>
      </trkpt>
      <trkpt lat="42.929734" lon="0.296007">
        <ele>1231.3</ele>
        <time>2014-12-29T15:28:53Z</time>
      </trkpt>
      <trkpt lat="42.929880" lon="0.295989">
        <ele>1228.8</ele>
        <time>2014-12-29T15:29:04Z</time>
      </trkpt>
      <trkpt lat="42.929986" lon="0.295954">
        <ele>1226.5</ele>
        <time>2014-12-29T15:29:14Z</time>
      </trkpt>
      <trkpt lat="42.930103" lon="0.295923">
        <ele>1224.3</ele>
        <time>2014-12-29T15:29:24Z</time>
      </trkpt>
      <trkpt lat="42.930220" lon="0.295878">
        <ele>1221.2</ele>
        <time>2014-12-29T15:29:36Z</time>
      </trkpt>
      <trkpt lat="42.930327" lon="0.295838">
        <ele>1219.7</ele>
        <time>2014-12-29T15:29:48Z</time>
      </trkpt>
      <trkpt lat="42.930420" lon="0.295799">
        <ele>1217.5</ele>
        <time>2014-12-29T15:30:00Z</time>
      </trkpt>
      <trkpt lat="42.930544" lon="0.295748">
        <ele>1215.5</ele>
        <time>2014-12-29T15:30:11Z</time>
      </trkpt>
      <trkpt lat="42.930648" lon="0.295712">
        <ele>1213.1</ele>
        <time>2014-12-29T15:30:21Z</time>
      </trkpt>
      <trkpt lat="42.930773" lon="0.295688">
        <ele>1210.2</ele>
        <time>2014-12-29T15:30:34Z</time>
      </trkpt>
      <trkpt lat="42.930897" lon="0.295659">
        <ele>1207.7</ele>
        <time>2014-12-29T15:30:45Z</time>
      </trkpt>
      <trkpt lat="42.931000" lon="0.295608">
        <ele>1205.7</ele>
        <time>2014-12-29T15:30:55Z</time>
      </trkpt>
      <trkpt lat="42.931122" lon="0.295558">
        <ele>1203.4</ele>
        <time>2014-12-29T15:31:07Z</time>
      </trkpt>
      <trkpt lat="42.931244" lon="0.295534">
        <ele>1200.9</ele>
        <time>2014-12-29T15:31:16Z</time>
      </trkpt>
      <trkpt lat="42.931352" lon="0.295541">
        <ele>1198.7</ele>
        <time>2014-12-29T15:31:25Z</time>
      </trkpt>
      <trkpt lat="42.931463" lon="0.295524">
        <ele>1196.9</ele>
        <time>2014-12-29T15:31:33Z</time>
      </trkpt>
      <trkpt lat="42.931577" lon="0.295525">
        <ele>1194.5</ele>
        <time>2014-12-29T15:31:42Z</time>
      </trkpt>
      <trkpt lat="42.931695" lon="0.295539">
        <ele>1191.8</ele>
        <time>2014-12-29T15:31:52Z</time>
      </trkpt>
      <trkpt lat="42.931771" lon="0.295611">
        <ele>1190.2</ele>
        <time>2014-12-29T15:32:04Z</time>
      </trkpt>
      <trkpt lat="42.931857" lon="0.295659">
        <ele>1187.8</ele>
        <time>2014-12-29T15:32:19Z</time>
      </trkpt>
      <trkpt lat="42.931895" lon="0.295786">
        <ele>1184.6</ele>
        <time>2014-12-29T15:32:32Z</time>
      </trkpt>
      <trkpt lat="42.931983" lon="0.295847">
        <ele>1179.7</ele>
        <time>2014-12-29T15:32:49Z</time>
      </trkpt>
      <trkpt lat="42.932070" lon="0.295928">
        <ele>1173.9</ele>
        <time>2014-12-29T15:33:06Z</time>
      </trkpt>
      <trkpt lat="42.932166" lon="0.295947">
        <ele>1170.8</ele>
        <time>2014-12-29T15:33:22Z</time>
      </trkpt>
      <trkpt lat="42.932199" lon="0.296077">
        <ele>1165.8</ele>
        <time>2014-12-29T15:33:41Z</time>
      </trkpt>
      <trkpt lat="42.932251" lon="0.296180">
        <ele>1161.6</ele>
        <time>2014-12-29T15:33:59Z</time>
      </trkpt>
      <trkpt lat="42.932286" lon="0.296282">
        <ele>1157.2</ele>
        <time>2014-12-29T15:34:14Z</time>
      </trkpt>
      <trkpt lat="42.932337" lon="0.296326">
        <ele>1153.1</ele>
        <time>2014-12-29T15:34:33Z</time>
      </trkpt>
      <trkpt lat="42.932448" lon="0.296335">
        <ele>1149.2</ele>
        <time>2014-12-29T15:34:48Z</time>
      </trkpt>
      <trkpt lat="42.932436" lon="0.296417">
        <ele>1146.5</ele>
        <time>2014-12-29T15:35:06Z</time>
      </trkpt>
      <trkpt lat="42.932411" lon="0.296552">
        <ele>1143.5</ele>
        <time>2014-12-29T15:35:19Z</time>
      </trkpt>
      <trkpt lat="42.932390" lon="0.296683">
        <ele>1139.4</ele>
        <time>2014-12-29T15:36:04Z</time>
      </trkpt>
      <trkpt lat="42.932325" lon="0.296810">
        <ele>1138.5</ele>
        <time>2014-12-29T15:36:17Z</time>
      </trkpt>
      <trkpt lat="42.932304" lon="0.296907">
        <ele>1136.9</ele>
        <time>2014-12-29T15:36:25Z</time>
      </trkpt>
      <trkpt lat="42.932251" lon="0.297032">
        <ele>1136.4</ele>
        <time>2014-12-29T15:36:34Z</time>
      </trkpt>
      <trkpt lat="42.932183" lon="0.297077">
        <ele>1135.5</ele>
        <time>2014-12-29T15:36:44Z</time>
      </trkpt>
      <trkpt lat="42.932061" lon="0.297162">
        <ele>1135.2</ele>
        <time>2014-12-29T15:36:54Z</time>
      </trkpt>
      <trkpt lat="42.932096" lon="0.297274">
        <ele>1135.1</ele>
        <time>2014-12-29T15:37:04Z</time>
      </trkpt>
      <trkpt lat="42.932172" lon="0.297342">
        <ele>1135.2</ele>
        <time>2014-12-29T15:37:40Z</time>
      </trkpt>
      <trkpt lat="42.932269" lon="0.297374">
        <ele>1135.0</ele>
        <time>2014-12-29T15:37:51Z</time>
      </trkpt>
      <trkpt lat="42.932368" lon="0.297386">
        <ele>1134.6</ele>
        <time>2014-12-29T15:38:01Z</time>
      </trkpt>
      <trkpt lat="42.932486" lon="0.297432">
        <ele>1134.2</ele>
        <time>2014-12-29T15:38:11Z</time>
      </trkpt>
      <trkpt lat="42.932568" lon="0.297459">
        <ele>1133.8</ele>
        <time>2014-12-29T15:38:18Z</time>
      </trkpt>
      <trkpt lat="42.932665" lon="0.297500">
        <ele>1133.5</ele>
        <time>2014-12-29T15:38:28Z</time>
      </trkpt>
      <trkpt lat="42.932774" lon="0.297542">
        <ele>1133.2</ele>
        <time>2014-12-29T15:38:37Z</time>
      </trkpt>
      <trkpt lat="42.932892" lon="0.297575">
        <ele>1132.9</ele>
        <time>2014-12-29T15:38:47Z</time>
      </trkpt>
      <trkpt lat="42.933015" lon="0.297607">
        <ele>1132.9</ele>
        <time>2014-12-29T15:38:57Z</time>
      </trkpt>
      <trkpt lat="42.933122" lon="0.297612">
        <ele>1133.1</ele>
        <time>2014-12-29T15:39:06Z</time>
      </trkpt>
      <trkpt lat="42.933229" lon="0.297635">
        <ele>1133.1</ele>
        <time>2014-12-29T15:39:15Z</time>
      </trkpt>
      <trkpt lat="42.933332" lon="0.297647">
        <ele>1133.1</ele>
        <time>2014-12-29T15:39:25Z</time>
      </trkpt>
      <trkpt lat="42.933456" lon="0.297662">
        <ele>1133.5</ele>
        <time>2014-12-29T15:39:36Z</time>
      </trkpt>
      <trkpt lat="42.933566" lon="0.297716">
        <ele>1133.3</ele>
        <time>2014-12-29T15:39:45Z</time>
      </trkpt>
      <trkpt lat="42.933656" lon="0.297742">
        <ele>1133.2</ele>
        <time>2014-12-29T15:39:52Z</time>
      </trkpt>
      <trkpt lat="42.933744" lon="0.297807">
        <ele>1133.3</ele>
        <time>2014-12-29T15:40:00Z</time>
      </trkpt>
      <trkpt lat="42.933822" lon="0.297869">
        <ele>1133.5</ele>
        <time>2014-12-29T15:40:08Z</time>
      </trkpt>
      <trkpt lat="42.933895" lon="0.297971">
        <ele>1133.7</ele>
        <time>2014-12-29T15:40:19Z</time>
      </trkpt>
      <trkpt lat="42.933967" lon="0.298078">
        <ele>1133.8</ele>
        <time>2014-12-29T15:40:31Z</time>
      </trkpt>
      <trkpt lat="42.934016" lon="0.298187">
        <ele>1133.8</ele>
        <time>2014-12-29T15:40:41Z</time>
      </trkpt>
      <trkpt lat="42.934062" lon="0.298316">
        <ele>1133.9</ele>
        <time>2014-12-29T15:40:53Z</time>
      </trkpt>
      <trkpt lat="42.934108" lon="0.298415">
        <ele>1133.9</ele>
        <time>2014-12-29T15:41:01Z</time>
      </trkpt>
      <trkpt lat="42.934212" lon="0.298502">
        <ele>1133.8</ele>
        <time>2014-12-29T15:41:11Z</time>
      </trkpt>
      <trkpt lat="42.934325" lon="0.298600">
        <ele>1133.7</ele>
        <time>2014-12-29T15:41:21Z</time>
      </trkpt>
      <trkpt lat="42.934402" lon="0.298684">
        <ele>1133.6</ele>
        <time>2014-12-29T15:41:29Z</time>
      </trkpt>
      <trkpt lat="42.934468" lon="0.298777">
        <ele>1133.7</ele>
        <time>2014-12-29T15:41:37Z</time>
      </trkpt>
      <trkpt lat="42.934511" lon="0.298873">
        <ele>1133.4</ele>
        <time>2014-12-29T15:41:45Z</time>
      </trkpt>
      <trkpt lat="42.934566" lon="0.298979">
        <ele>1133.3</ele>
        <time>2014-12-29T15:41:53Z</time>
      </trkpt>
      <trkpt lat="42.934605" lon="0.299092">
        <ele>1133.2</ele>
        <time>2014-12-29T15:42:01Z</time>
      </trkpt>
      <trkpt lat="42.934641" lon="0.299209">
        <ele>1133.4</ele>
        <time>2014-12-29T15:42:09Z</time>
      </trkpt>
      <trkpt lat="42.934674" lon="0.299337">
        <ele>1133.1</ele>
        <time>2014-12-29T15:42:17Z</time>
      </trkpt>
      <trkpt lat="42.934732" lon="0.299467">
        <ele>1133.1</ele>
        <time>2014-12-29T15:42:26Z</time>
      </trkpt>
      <trkpt lat="42.934792" lon="0.299581">
        <ele>1133.0</ele>
        <time>2014-12-29T15:42:34Z</time>
      </trkpt>
      <trkpt lat="42.934863" lon="0.299694">
        <ele>1132.9</ele>
        <time>2014-12-29T15:42:44Z</time>
      </trkpt>
      <trkpt lat="42.934957" lon="0.299809">
        <ele>1132.8</ele>
        <time>2014-12-29T15:42:56Z</time>
      </trkpt>
      <trkpt lat="42.935021" lon="0.299895">
        <ele>1132.8</ele>
        <time>2014-12-29T15:43:05Z</time>
      </trkpt>
      <trkpt lat="42.935086" lon="0.299994">
        <ele>1132.7</ele>
        <time>2014-12-29T15:43:13Z</time>
      </trkpt>
      <trkpt lat="42.935129" lon="0.300119">
        <ele>1132.6</ele>
        <time>2014-12-29T15:43:22Z</time>
      </trkpt>
      <trkpt lat="42.935147" lon="0.300245">
        <ele>1132.7</ele>
        <time>2014-12-29T15:43:31Z</time>
      </trkpt>
      <trkpt lat="42.935179" lon="0.300366">
        <ele>1132.6</ele>
        <time>2014-12-29T15:43:39Z</time>
      </trkpt>
      <trkpt lat="42.935218" lon="0.300506">
        <ele>1132.8</ele>
        <time>2014-12-29T15:43:48Z</time>
      </trkpt>
      <trkpt lat="42.935282" lon="0.300580">
        <ele>1132.6</ele>
        <time>2014-12-29T15:43:56Z</time>
      </trkpt>
      <trkpt lat="42.935352" lon="0.300653">
        <ele>1132.6</ele>
        <time>2014-12-29T15:44:04Z</time>
      </trkpt>
      <trkpt lat="42.935434" lon="0.300721">
        <ele>1133.0</ele>
        <time>2014-12-29T15:44:13Z</time>
      </trkpt>
      <trkpt lat="42.935530" lon="0.300796">
        <ele>1133.7</ele>
        <time>2014-12-29T15:44:22Z</time>
      </trkpt>
      <trkpt lat="42.935603" lon="0.300898">
        <ele>1134.5</ele>
        <time>2014-12-29T15:44:31Z</time>
      </trkpt>
      <trkpt lat="42.935665" lon="0.301004">
        <ele>1135.2</ele>
        <time>2014-12-29T15:44:40Z</time>
      </trkpt>
      <trkpt lat="42.935718" lon="0.301125">
        <ele>1135.6</ele>
        <time>2014-12-29T15:44:50Z</time>
      </trkpt>
      <trkpt lat="42.935780" lon="0.301237">
        <ele>1135.9</ele>
        <time>2014-12-29T15:44:59Z</time>
      </trkpt>
      <trkpt lat="42.935825" lon="0.301359">
        <ele>1136.2</ele>
        <time>2014-12-29T15:45:08Z</time>
      </trkpt>
      <trkpt lat="42.935885" lon="0.301468">
        <ele>1136.4</ele>
        <time>2014-12-29T15:45:16Z</time>
      </trkpt>
      <trkpt lat="42.935947" lon="0.301590">
        <ele>1136.9</ele>
        <time>2014-12-29T15:45:26Z</time>
      </trkpt>
      <trkpt lat="42.936010" lon="0.301709">
        <ele>1137.4</ele>
        <time>2014-12-29T15:45:35Z</time>
      </trkpt>
      <trkpt lat="42.936071" lon="0.301824">
        <ele>1137.6</ele>
        <time>2014-12-29T15:45:43Z</time>
      </trkpt>
      <trkpt lat="42.936119" lon="0.301930">
        <ele>1137.8</ele>
        <time>2014-12-29T15:45:51Z</time>
      </trkpt>
      <trkpt lat="42.936183" lon="0.302049">
        <ele>1138.1</ele>
        <time>2014-12-29T15:45:59Z</time>
      </trkpt>
      <trkpt lat="42.936225" lon="0.302172">
        <ele>1138.3</ele>
        <time>2014-12-29T15:46:09Z</time>
      </trkpt>
      <trkpt lat="42.936259" lon="0.302286">
        <ele>1138.7</ele>
        <time>2014-12-29T15:46:17Z</time>
      </trkpt>
      <trkpt lat="42.936351" lon="0.302390">
        <ele>1138.8</ele>
        <time>2014-12-29T15:46:26Z</time>
      </trkpt>
      <trkpt lat="42.936439" lon="0.302467">
        <ele>1139.4</ele>
        <time>2014-12-29T15:46:35Z</time>
      </trkpt>
      <trkpt lat="42.936514" lon="0.302552">
        <ele>1140.0</ele>
        <time>2014-12-29T15:46:43Z</time>
      </trkpt>
      <trkpt lat="42.936583" lon="0.302663">
        <ele>1140.4</ele>
        <time>2014-12-29T15:46:54Z</time>
      </trkpt>
      <trkpt lat="42.936686" lon="0.302732">
        <ele>1140.6</ele>
        <time>2014-12-29T15:47:04Z</time>
      </trkpt>
      <trkpt lat="42.936768" lon="0.302833">
        <ele>1141.3</ele>
        <time>2014-12-29T15:47:14Z</time>
      </trkpt>
      <trkpt lat="42.936846" lon="0.302907">
        <ele>1141.5</ele>
        <time>2014-12-29T15:47:22Z</time>
      </trkpt>
      <trkpt lat="42.936929" lon="0.302983">
        <ele>1141.8</ele>
        <time>2014-12-29T15:47:30Z</time>
      </trkpt>
      <trkpt lat="42.936999" lon="0.303056">
        <ele>1142.3</ele>
        <time>2014-12-29T15:47:39Z</time>
      </trkpt>
      <trkpt lat="42.937105" lon="0.303121">
        <ele>1142.9</ele>
        <time>2014-12-29T15:47:50Z</time>
      </trkpt>
      <trkpt lat="42.937204" lon="0.303167">
        <ele>1143.5</ele>
        <time>2014-12-29T15:48:01Z</time>
      </trkpt>
      <trkpt lat="42.937300" lon="0.303199">
        <ele>1144.1</ele>
        <time>2014-12-29T15:48:13Z</time>
      </trkpt>
      <trkpt lat="42.937399" lon="0.303296">
        <ele>1145.7</ele>
        <time>2014-12-29T15:48:26Z</time>
      </trkpt>
      <trkpt lat="42.937438" lon="0.303265">
        <ele>1146.3</ele>
        <time>2014-12-29T15:48:52Z</time>
      </trkpt>
      <trkpt lat="42.937450" lon="0.303304">
        <ele>1147.0</ele>
        <time>2014-12-29T15:50:03Z</time>
      </trkpt>
      <trkpt lat="42.937443" lon="0.303298">
        <ele>1146.7</ele>
        <time>2014-12-29T15:51:25Z</time>
      </trkpt>
    </trkseg>
  </trk>
</gpx>

